Time,TemperatureF,DewpointF,PressureIn,WindDirection,WindDirectionDegrees,WindSpeedMPH,WindSpeedGustMPH,Humidity,HourlyPrecipIn,Conditions,Clouds,dailyrainin,SoftwareType,DateUTC
2013-05-04 00:00:00,46.0,38.5,30.24,SSE,159,0.0,0.0,75,0.00,,,0.00,Wunderground v.1.15,2013-05-04 04:00:00,
2013-05-04 00:01:00,45.8,38.3,30.24,SSE,159,0.0,0.0,75,0.00,,,0.00,Wunderground v.1.15,2013-05-04 04:01:00,
2013-05-04 00:02:00,45.8,38.3,30.24,SSE,159,0.0,0.0,75,0.00,,,0.00,Wunderground v.1.15,2013-05-04 04:02:00,
2013-05-04 00:03:00,45.7,38.2,30.24,SSE,159,0.0,0.0,75,0.00,,,0.00,Wunderground v.1.15,2013-05-04 04:03:00,
2013-05-04 00:05:00,45.5,38.4,30.24,SSE,159,0.0,0.0,76,0.00,,,0.00,Wunderground v.1.15,2013-05-04 04:05:00,
2013-05-04 00:06:00,45.5,38.4,30.24,SSE,159,0.0,0.0,76,0.00,,,0.00,Wunderground v.1.15,2013-05-04 04:06:00,
2013-05-04 00:10:00,45.2,38.4,30.24,SSE,159,0.0,0.0,77,0.00,,,0.00,Wunderground v.1.15,2013-05-04 04:10:00,
2013-05-04 00:11:00,45.1,38.3,30.24,SSE,159,0.0,0.0,77,0.00,,,0.00,Wunderground v.1.15,2013-05-04 04:11:00,
2013-05-04 00:15:00,44.8,38.0,30.24,SSE,159,0.0,0.0,77,0.00,,,0.00,Wunderground v.1.15,2013-05-04 04:15:00,
2013-05-04 00:16:00,44.8,38.0,30.24,SSE,159,0.0,0.0,77,0.00,,,0.00,Wunderground v.1.15,2013-05-04 04:16:00,
2013-05-04 00:21:00,44.3,37.9,30.24,SSE,159,0.0,0.0,78,0.00,,,0.00,Wunderground v.1.15,2013-05-04 04:21:00,
2013-05-04 00:23:00,44.2,38.1,30.24,SSE,159,0.0,0.0,79,0.00,,,0.00,Wunderground v.1.15,2013-05-04 04:23:00,
2013-05-04 00:24:00,44.2,38.1,30.24,SSE,159,0.0,0.0,79,0.00,,,0.00,Wunderground v.1.15,2013-05-04 04:24:00,
2013-05-04 00:26:00,44.1,38.0,30.24,SSE,159,0.0,0.0,79,0.00,,,0.00,Wunderground v.1.15,2013-05-04 04:26:00,
2013-05-04 00:28:00,44.1,38.3,30.24,SSE,159,0.0,0.0,80,0.00,,,0.00,Wunderground v.1.15,2013-05-04 04:28:00,
2013-05-04 00:29:00,43.9,38.1,30.24,SSE,159,0.0,0.0,80,0.00,,,0.00,Wunderground v.1.15,2013-05-04 04:29:00,
2013-05-04 00:33:00,43.8,38.0,30.23,SSE,159,0.0,0.0,80,0.00,,,0.00,Wunderground v.1.15,2013-05-04 04:33:00,
2013-05-04 00:34:00,43.8,38.0,30.23,SSE,159,0.0,0.0,80,0.00,,,0.00,Wunderground v.1.15,2013-05-04 04:34:00,
2013-05-04 00:36:00,43.6,38.2,30.23,SSE,159,0.0,0.0,81,0.00,,,0.00,Wunderground v.1.15,2013-05-04 04:36:00,
2013-05-04 00:38:00,43.5,38.1,30.23,SSE,159,0.0,0.0,81,0.00,,,0.00,Wunderground v.1.15,2013-05-04 04:38:00,
2013-05-04 00:40:00,43.3,37.9,30.23,SSE,159,0.0,0.0,81,0.00,,,0.00,Wunderground v.1.15,2013-05-04 04:40:00,
2013-05-04 00:41:00,43.3,37.9,30.23,SSE,159,0.0,0.0,81,0.00,,,0.00,Wunderground v.1.15,2013-05-04 04:41:00,
2013-05-04 00:43:00,43.2,37.8,30.23,SSE,159,0.0,0.0,81,0.00,,,0.00,Wunderground v.1.15,2013-05-04 04:43:00,
2013-05-04 00:46:00,43.1,38.0,30.23,SSE,159,0.0,0.0,82,0.00,,,0.00,Wunderground v.1.15,2013-05-04 04:46:00,
2013-05-04 00:47:00,43.1,38.0,30.23,SSE,159,0.0,0.0,82,0.00,,,0.00,Wunderground v.1.15,2013-05-04 04:47:00,
2013-05-04 00:48:00,43.1,38.3,30.23,SSE,159,0.0,0.0,83,0.00,,,0.00,Wunderground v.1.15,2013-05-04 04:48:00,
2013-05-04 00:49:00,42.9,38.1,30.23,SSE,159,0.0,0.0,83,0.00,,,0.00,Wunderground v.1.15,2013-05-04 04:49:00,
2013-05-04 00:55:00,42.8,38.0,30.23,SSE,159,0.0,0.0,83,0.00,,,0.00,Wunderground v.1.15,2013-05-04 04:55:00,
2013-05-04 00:56:00,42.8,38.3,30.23,SSE,159,0.0,0.0,84,0.00,,,0.00,Wunderground v.1.15,2013-05-04 04:56:00,
2013-05-04 00:57:00,42.6,38.1,30.23,SSE,159,0.0,0.0,84,0.00,,,0.00,Wunderground v.1.15,2013-05-04 04:57:00,
2013-05-04 01:02:00,42.5,38.0,30.23,SSE,159,0.0,0.0,84,0.00,,,0.00,Wunderground v.1.15,2013-05-04 05:02:00,
2013-05-04 01:03:00,42.5,38.3,30.23,SSE,159,0.0,0.0,85,0.00,,,0.00,Wunderground v.1.15,2013-05-04 05:03:00,
2013-05-04 01:05:00,42.5,38.3,30.23,SSE,159,0.0,0.0,85,0.00,,,0.00,Wunderground v.1.15,2013-05-04 05:05:00,
2013-05-04 01:06:00,42.5,38.3,30.23,SSE,159,0.0,0.0,85,0.00,,,0.00,Wunderground v.1.15,2013-05-04 05:06:00,
2013-05-04 01:08:00,42.3,38.1,30.23,SSE,159,0.0,0.0,85,0.00,,,0.00,Wunderground v.1.15,2013-05-04 05:08:00,
2013-05-04 01:10:00,42.3,38.1,30.23,SSE,159,0.0,0.0,85,0.00,,,0.00,Wunderground v.1.15,2013-05-04 05:10:00,
2013-05-04 01:12:00,42.2,38.0,30.23,SSE,159,0.0,0.0,85,0.00,,,0.00,Wunderground v.1.15,2013-05-04 05:12:00,
2013-05-04 01:14:00,42.2,38.0,30.23,SSE,159,0.0,0.0,85,0.00,,,0.00,Wunderground v.1.15,2013-05-04 05:14:00,
2013-05-04 01:15:00,42.2,38.3,30.23,SSE,159,0.0,0.0,86,0.00,,,0.00,Wunderground v.1.15,2013-05-04 05:15:00,
2013-05-04 01:16:00,42.2,38.3,30.23,SSE,159,0.0,0.0,86,0.00,,,0.00,Wunderground v.1.15,2013-05-04 05:16:00,
2013-05-04 01:17:00,42.1,38.2,30.23,SSE,159,0.0,0.0,86,0.00,,,0.00,Wunderground v.1.15,2013-05-04 05:17:00,
2013-05-04 01:18:00,42.1,38.2,30.23,SSE,159,0.0,0.0,86,0.00,,,0.00,Wunderground v.1.15,2013-05-04 05:18:00,
2013-05-04 01:20:00,42.1,38.2,30.23,SSE,159,0.0,0.0,86,0.00,,,0.00,Wunderground v.1.15,2013-05-04 05:20:00,
2013-05-04 01:23:00,41.9,38.0,30.23,SSE,159,0.0,0.0,86,0.00,,,0.00,Wunderground v.1.15,2013-05-04 05:23:00,
2013-05-04 01:24:00,41.9,38.0,30.23,SSE,159,0.0,0.0,86,0.00,,,0.00,Wunderground v.1.15,2013-05-04 05:24:00,
2013-05-04 01:26:00,41.8,37.9,30.23,SSE,159,0.0,0.0,86,0.00,,,0.00,Wunderground v.1.15,2013-05-04 05:26:00,
2013-05-04 01:29:00,41.6,37.7,30.23,SSE,159,0.0,0.0,86,0.00,,,0.00,Wunderground v.1.15,2013-05-04 05:29:00,
2013-05-04 01:31:00,41.5,37.9,30.23,SSE,159,0.0,0.0,87,0.00,,,0.00,Wunderground v.1.15,2013-05-04 05:31:00,
2013-05-04 01:33:00,41.3,37.7,30.23,SSE,159,0.0,0.0,87,0.00,,,0.00,Wunderground v.1.15,2013-05-04 05:33:00,
2013-05-04 01:36:00,41.2,37.6,30.23,SSE,159,0.0,0.0,87,0.00,,,0.00,Wunderground v.1.15,2013-05-04 05:36:00,
2013-05-04 01:39:00,41.2,37.6,30.23,SSE,159,0.0,0.0,87,0.00,,,0.00,Wunderground v.1.15,2013-05-04 05:39:00,
2013-05-04 01:40:00,41.1,37.5,30.23,SSE,159,0.0,0.0,87,0.00,,,0.00,Wunderground v.1.15,2013-05-04 05:40:00,
2013-05-04 01:41:00,41.1,37.5,30.23,SSE,159,0.0,0.0,87,0.00,,,0.00,Wunderground v.1.15,2013-05-04 05:41:00,
2013-05-04 01:44:00,40.9,37.3,30.23,SSE,159,0.0,0.0,87,0.00,,,0.00,Wunderground v.1.15,2013-05-04 05:44:00,
2013-05-04 01:45:00,40.9,37.6,30.23,SSE,159,0.0,0.0,88,0.00,,,0.00,Wunderground v.1.15,2013-05-04 05:45:00,
2013-05-04 01:47:00,40.9,37.6,30.22,SSE,159,0.0,0.0,88,0.00,,,0.00,Wunderground v.1.15,2013-05-04 05:47:00,
2013-05-04 01:48:00,40.8,37.5,30.22,SSE,159,0.0,0.0,88,0.00,,,0.00,Wunderground v.1.15,2013-05-04 05:48:00,
2013-05-04 01:49:00,40.8,37.5,30.22,SSE,159,0.0,0.0,88,0.00,,,0.00,Wunderground v.1.15,2013-05-04 05:49:00,
2013-05-04 01:52:00,40.6,37.3,30.22,SSE,159,0.0,0.0,88,0.00,,,0.00,Wunderground v.1.15,2013-05-04 05:52:00,
2013-05-04 01:53:00,40.6,37.3,30.22,SSE,159,0.0,0.0,88,0.00,,,0.00,Wunderground v.1.15,2013-05-04 05:53:00,
2013-05-04 01:56:00,40.5,37.2,30.22,SSE,159,0.0,0.0,88,0.00,,,0.00,Wunderground v.1.15,2013-05-04 05:56:00,
2013-05-04 01:57:00,40.3,37.0,30.22,SSE,159,0.0,0.0,88,0.00,,,0.00,Wunderground v.1.15,2013-05-04 05:57:00,
2013-05-04 01:58:00,40.3,37.0,30.22,SSE,159,0.0,0.0,88,0.00,,,0.00,Wunderground v.1.15,2013-05-04 05:58:00,
2013-05-04 02:00:00,40.2,36.9,30.22,SSE,159,0.0,0.0,88,0.00,,,0.00,Wunderground v.1.15,2013-05-04 06:00:00,
2013-05-04 02:01:00,40.2,36.9,30.22,SSE,159,0.0,0.0,88,0.00,,,0.00,Wunderground v.1.15,2013-05-04 06:01:00,
2013-05-04 02:02:00,40.2,36.9,30.21,SSE,159,0.0,0.0,88,0.00,,,0.00,Wunderground v.1.15,2013-05-04 06:02:00,
2013-05-04 02:04:00,40.1,36.8,30.21,SSE,159,0.0,0.0,88,0.00,,,0.00,Wunderground v.1.15,2013-05-04 06:04:00,
2013-05-04 02:08:00,39.8,36.8,30.21,SSE,159,0.0,0.0,89,0.00,,,0.00,Wunderground v.1.15,2013-05-04 06:08:00,
2013-05-04 02:10:00,39.8,36.8,30.21,SSE,159,0.0,0.0,89,0.00,,,0.00,Wunderground v.1.15,2013-05-04 06:10:00,
2013-05-04 02:11:00,39.8,36.8,30.21,SSE,159,0.0,0.0,89,0.00,,,0.00,Wunderground v.1.15,2013-05-04 06:11:00,
2013-05-04 02:14:00,39.6,36.6,30.21,SSE,159,0.0,0.0,89,0.00,,,0.00,Wunderground v.1.15,2013-05-04 06:14:00,
2013-05-04 02:16:00,39.6,36.9,30.21,SSE,159,0.0,0.0,90,0.00,,,0.00,Wunderground v.1.15,2013-05-04 06:16:00,
2013-05-04 02:19:00,39.5,36.8,30.20,SSE,159,0.0,0.0,90,0.00,,,0.00,Wunderground v.1.15,2013-05-04 06:19:00,
2013-05-04 02:20:00,39.5,36.8,30.20,SSE,159,0.0,0.0,90,0.00,,,0.00,Wunderground v.1.15,2013-05-04 06:20:00,
2013-05-04 02:22:00,39.6,36.9,30.20,SSE,159,0.0,0.0,90,0.00,,,0.00,Wunderground v.1.15,2013-05-04 06:22:00,
2013-05-04 02:23:00,39.8,37.1,30.20,SSE,159,0.0,0.0,90,0.00,,,0.00,Wunderground v.1.15,2013-05-04 06:23:00,
2013-05-04 02:25:00,39.9,37.2,30.20,SSE,159,0.0,0.0,90,0.00,,,0.00,Wunderground v.1.15,2013-05-04 06:25:00,
2013-05-04 02:26:00,39.9,37.2,30.20,SSE,159,0.0,0.0,90,0.00,,,0.00,Wunderground v.1.15,2013-05-04 06:26:00,
2013-05-04 02:28:00,39.8,37.1,30.20,SSE,159,0.0,0.0,90,0.00,,,0.00,Wunderground v.1.15,2013-05-04 06:28:00,
2013-05-04 02:31:00,39.8,37.1,30.20,SSE,159,0.0,0.0,90,0.00,,,0.00,Wunderground v.1.15,2013-05-04 06:31:00,
2013-05-04 02:33:00,39.6,36.9,30.19,SSE,159,0.0,0.0,90,0.00,,,0.00,Wunderground v.1.15,2013-05-04 06:33:00,
2013-05-04 02:37:00,39.5,36.8,30.19,SSE,159,0.0,0.0,90,0.00,,,0.00,Wunderground v.1.15,2013-05-04 06:37:00,
2013-05-04 02:39:00,39.3,36.6,30.19,SSE,159,0.0,0.0,90,0.00,,,0.00,Wunderground v.1.15,2013-05-04 06:39:00,
2013-05-04 02:40:00,39.3,36.6,30.19,SSE,159,0.0,0.0,90,0.00,,,0.00,Wunderground v.1.15,2013-05-04 06:40:00,
2013-05-04 02:41:00,39.3,36.9,30.19,SSE,159,0.0,0.0,91,0.00,,,0.00,Wunderground v.1.15,2013-05-04 06:41:00,
2013-05-04 02:42:00,39.3,36.9,30.19,SSE,159,0.0,0.0,91,0.00,,,0.00,Wunderground v.1.15,2013-05-04 06:42:00,
2013-05-04 02:45:00,39.5,37.1,30.19,SSE,159,0.0,0.0,91,0.00,,,0.00,Wunderground v.1.15,2013-05-04 06:45:00,
2013-05-04 02:47:00,39.5,37.1,30.19,SSE,159,0.0,0.0,91,0.00,,,0.00,Wunderground v.1.15,2013-05-04 06:47:00,
2013-05-04 02:48:00,39.3,36.9,30.19,SSE,159,0.0,0.0,91,0.00,,,0.00,Wunderground v.1.15,2013-05-04 06:48:00,
2013-05-04 02:50:00,39.3,36.9,30.19,SSE,159,0.0,0.0,91,0.00,,,0.00,Wunderground v.1.15,2013-05-04 06:50:00,
2013-05-04 02:52:00,39.2,36.8,30.19,SSE,159,0.0,0.0,91,0.00,,,0.00,Wunderground v.1.15,2013-05-04 06:52:00,
2013-05-04 02:53:00,39.2,36.8,30.19,SSE,159,0.0,0.0,91,0.00,,,0.00,Wunderground v.1.15,2013-05-04 06:53:00,
2013-05-04 02:55:00,39.1,36.7,30.19,SSE,159,0.0,0.0,91,0.00,,,0.00,Wunderground v.1.15,2013-05-04 06:55:00,
2013-05-04 02:58:00,38.9,36.5,30.19,SSE,159,0.0,0.0,91,0.00,,,0.00,Wunderground v.1.15,2013-05-04 06:58:00,
2013-05-04 02:59:00,38.8,36.4,30.19,SSE,159,0.0,0.0,91,0.00,,,0.00,Wunderground v.1.15,2013-05-04 06:59:00,
2013-05-04 03:00:00,38.8,36.4,30.19,SSE,159,0.0,0.0,91,0.00,,,0.00,Wunderground v.1.15,2013-05-04 07:00:00,
2013-05-04 03:01:00,38.8,36.4,30.19,SSE,159,0.0,0.0,91,0.00,,,0.00,Wunderground v.1.15,2013-05-04 07:01:00,
2013-05-04 03:05:00,38.5,36.1,30.19,SSE,159,0.0,0.0,91,0.00,,,0.00,Wunderground v.1.15,2013-05-04 07:05:00,
2013-05-04 03:06:00,38.5,36.1,30.19,SSE,159,0.0,0.0,91,0.00,,,0.00,Wunderground v.1.15,2013-05-04 07:06:00,
2013-05-04 03:08:00,38.3,35.9,30.19,SSE,159,0.0,0.0,91,0.00,,,0.00,Wunderground v.1.15,2013-05-04 07:08:00,
2013-05-04 03:09:00,38.3,35.9,30.19,SSE,159,0.0,0.0,91,0.00,,,0.00,Wunderground v.1.15,2013-05-04 07:09:00,
2013-05-04 03:11:00,38.3,36.2,30.19,SSE,159,0.0,0.0,92,0.00,,,0.00,Wunderground v.1.15,2013-05-04 07:11:00,
2013-05-04 03:12:00,38.3,36.2,30.19,SSE,159,0.0,0.0,92,0.00,,,0.00,Wunderground v.1.15,2013-05-04 07:12:00,
2013-05-04 03:13:00,38.3,36.2,30.19,SSE,159,0.0,0.0,92,0.00,,,0.00,Wunderground v.1.15,2013-05-04 07:13:00,
2013-05-04 03:15:00,38.3,36.2,30.19,SSE,159,0.0,0.0,92,0.00,,,0.00,Wunderground v.1.15,2013-05-04 07:15:00,
2013-05-04 03:18:00,38.3,36.2,30.19,SSE,159,0.0,0.0,92,0.00,,,0.00,Wunderground v.1.15,2013-05-04 07:18:00,
2013-05-04 03:19:00,38.3,36.2,30.19,SSE,159,0.0,0.0,92,0.00,,,0.00,Wunderground v.1.15,2013-05-04 07:19:00,
2013-05-04 03:20:00,38.3,36.2,30.19,SSE,159,0.0,0.0,92,0.00,,,0.00,Wunderground v.1.15,2013-05-04 07:20:00,
2013-05-04 03:23:00,38.3,36.2,30.19,SSE,159,0.0,0.0,92,0.00,,,0.00,Wunderground v.1.15,2013-05-04 07:23:00,
2013-05-04 03:25:00,38.3,36.2,30.19,SSE,159,0.0,0.0,92,0.00,,,0.00,Wunderground v.1.15,2013-05-04 07:25:00,
2013-05-04 03:29:00,38.2,36.1,30.19,SSE,159,0.0,0.0,92,0.00,,,0.00,Wunderground v.1.15,2013-05-04 07:29:00,
2013-05-04 03:30:00,38.2,36.1,30.19,SSE,159,0.0,0.0,92,0.00,,,0.00,Wunderground v.1.15,2013-05-04 07:30:00,
2013-05-04 03:31:00,38.3,36.2,30.19,SSE,159,0.0,0.0,92,0.00,,,0.00,Wunderground v.1.15,2013-05-04 07:31:00,
2013-05-04 03:32:00,38.2,36.1,30.19,SSE,159,0.0,0.0,92,0.00,,,0.00,Wunderground v.1.15,2013-05-04 07:32:00,
2013-05-04 03:34:00,38.3,36.5,30.19,SSE,159,0.0,0.0,93,0.00,,,0.00,Wunderground v.1.15,2013-05-04 07:34:00,
2013-05-04 03:35:00,38.3,36.5,30.19,SSE,159,0.0,0.0,93,0.00,,,0.00,Wunderground v.1.15,2013-05-04 07:35:00,
2013-05-04 03:37:00,38.3,36.5,30.19,SSE,159,0.0,0.0,93,0.00,,,0.00,Wunderground v.1.15,2013-05-04 07:37:00,
2013-05-04 03:41:00,38.5,36.7,30.19,SSE,159,0.0,0.0,93,0.00,,,0.00,Wunderground v.1.15,2013-05-04 07:41:00,
2013-05-04 03:44:00,38.5,36.7,30.19,SSE,159,0.0,0.0,93,0.00,,,0.00,Wunderground v.1.15,2013-05-04 07:44:00,
2013-05-04 03:45:00,38.5,36.7,30.19,SSE,159,0.0,0.0,93,0.00,,,0.00,Wunderground v.1.15,2013-05-04 07:45:00,
2013-05-04 03:48:00,38.5,36.7,30.19,SSE,159,0.0,0.0,93,0.00,,,0.00,Wunderground v.1.15,2013-05-04 07:48:00,
2013-05-04 03:49:00,38.5,36.7,30.19,SSE,159,0.0,0.0,93,0.00,,,0.00,Wunderground v.1.15,2013-05-04 07:49:00,
2013-05-04 03:50:00,38.5,36.7,30.19,SSE,159,0.0,0.0,93,0.00,,,0.00,Wunderground v.1.15,2013-05-04 07:50:00,
2013-05-04 03:54:00,38.5,36.7,30.19,SSE,159,0.0,0.0,93,0.00,,,0.00,Wunderground v.1.15,2013-05-04 07:54:00,
2013-05-04 03:55:00,38.6,36.8,30.19,SSE,159,0.0,0.0,93,0.00,,,0.00,Wunderground v.1.15,2013-05-04 07:55:00,
2013-05-04 03:57:00,38.6,36.8,30.19,SSE,159,0.0,0.0,93,0.00,,,0.00,Wunderground v.1.15,2013-05-04 07:57:00,
2013-05-04 04:00:00,38.8,36.9,30.19,SSE,159,0.0,0.0,93,0.00,,,0.00,Wunderground v.1.15,2013-05-04 08:00:00,
2013-05-04 04:02:00,38.8,36.9,30.19,SSE,159,0.0,0.0,93,0.00,,,0.00,Wunderground v.1.15,2013-05-04 08:02:00,
2013-05-04 04:03:00,38.8,36.9,30.19,SSE,159,0.0,0.0,93,0.00,,,0.00,Wunderground v.1.15,2013-05-04 08:03:00,
2013-05-04 04:04:00,38.8,36.9,30.19,SSE,159,0.0,0.0,93,0.00,,,0.00,Wunderground v.1.15,2013-05-04 08:04:00,
2013-05-04 04:05:00,38.8,36.9,30.19,SSE,159,0.0,0.0,93,0.00,,,0.00,Wunderground v.1.15,2013-05-04 08:05:00,
2013-05-04 04:07:00,38.9,37.0,30.19,SSE,159,0.0,0.0,93,0.00,,,0.00,Wunderground v.1.15,2013-05-04 08:07:00,
2013-05-04 04:10:00,38.9,37.0,30.19,SSE,159,0.0,0.0,93,0.00,,,0.00,Wunderground v.1.15,2013-05-04 08:10:00,
2013-05-04 04:12:00,38.9,37.0,30.19,SSE,159,0.0,0.0,93,0.00,,,0.00,Wunderground v.1.15,2013-05-04 08:12:00,
2013-05-04 04:15:00,38.8,36.9,30.19,SSE,159,0.0,0.0,93,0.00,,,0.00,Wunderground v.1.15,2013-05-04 08:15:00,
2013-05-04 04:16:00,38.8,36.9,30.19,SSE,159,0.0,0.0,93,0.00,,,0.00,Wunderground v.1.15,2013-05-04 08:16:00,
2013-05-04 04:18:00,38.6,36.8,30.19,SSE,159,0.0,0.0,93,0.00,,,0.00,Wunderground v.1.15,2013-05-04 08:18:00,
2013-05-04 04:19:00,38.6,36.8,30.19,SSE,159,0.0,0.0,93,0.00,,,0.00,Wunderground v.1.15,2013-05-04 08:19:00,
2013-05-04 04:22:00,38.5,36.7,30.19,SSE,159,0.0,0.0,93,0.00,,,0.00,Wunderground v.1.15,2013-05-04 08:22:00,
2013-05-04 04:23:00,38.5,36.7,30.19,SSE,159,0.0,0.0,93,0.00,,,0.00,Wunderground v.1.15,2013-05-04 08:23:00,
2013-05-04 04:24:00,38.5,36.7,30.19,SSE,159,0.0,0.0,93,0.00,,,0.00,Wunderground v.1.15,2013-05-04 08:24:00,
2013-05-04 04:28:00,38.3,36.5,30.19,SSE,159,0.0,0.0,93,0.00,,,0.00,Wunderground v.1.15,2013-05-04 08:28:00,
2013-05-04 04:29:00,38.3,36.5,30.19,SSE,159,0.0,0.0,93,0.00,,,0.00,Wunderground v.1.15,2013-05-04 08:29:00,
2013-05-04 04:31:00,38.3,36.5,30.19,SSE,159,0.0,0.0,93,0.00,,,0.00,Wunderground v.1.15,2013-05-04 08:31:00,
2013-05-04 04:32:00,38.3,36.5,30.19,SSE,159,0.0,0.0,93,0.00,,,0.00,Wunderground v.1.15,2013-05-04 08:32:00,
2013-05-04 04:35:00,38.2,36.6,30.19,SSE,159,0.0,0.0,94,0.00,,,0.00,Wunderground v.1.15,2013-05-04 08:35:00,
2013-05-04 04:37:00,38.2,36.6,30.19,SSE,159,0.0,0.0,94,0.00,,,0.00,Wunderground v.1.15,2013-05-04 08:37:00,
2013-05-04 04:38:00,38.2,36.6,30.19,SSE,159,0.0,0.0,94,0.00,,,0.00,Wunderground v.1.15,2013-05-04 08:38:00,
2013-05-04 04:39:00,38.2,36.6,30.19,SSE,159,0.0,0.0,94,0.00,,,0.00,Wunderground v.1.15,2013-05-04 08:39:00,
2013-05-04 04:40:00,38.2,36.6,30.19,SSE,159,0.0,0.0,94,0.00,,,0.00,Wunderground v.1.15,2013-05-04 08:40:00,
2013-05-04 04:42:00,38.2,36.6,30.19,SSE,159,0.0,0.0,94,0.00,,,0.00,Wunderground v.1.15,2013-05-04 08:42:00,
2013-05-04 04:44:00,38.2,36.6,30.19,SSE,159,0.0,0.0,94,0.00,,,0.00,Wunderground v.1.15,2013-05-04 08:44:00,
2013-05-04 04:47:00,38.2,36.6,30.19,SSE,159,0.0,0.0,94,0.00,,,0.00,Wunderground v.1.15,2013-05-04 08:47:00,
2013-05-04 04:50:00,38.2,36.6,30.19,SSE,159,0.0,0.0,94,0.00,,,0.00,Wunderground v.1.15,2013-05-04 08:50:00,
2013-05-04 04:51:00,38.2,36.6,30.19,SSE,159,0.0,0.0,94,0.00,,,0.00,Wunderground v.1.15,2013-05-04 08:51:00,
2013-05-04 04:55:00,38.2,36.6,30.19,SSE,159,0.0,1.0,94,0.00,,,0.00,Wunderground v.1.15,2013-05-04 08:55:00,
2013-05-04 04:57:00,38.2,36.6,30.19,SSE,159,0.0,1.0,94,0.00,,,0.00,Wunderground v.1.15,2013-05-04 08:57:00,
2013-05-04 05:00:00,38.3,36.7,30.19,SSE,159,0.0,0.0,94,0.00,,,0.00,Wunderground v.1.15,2013-05-04 09:00:00,
2013-05-04 05:01:00,38.3,36.7,30.19,SSE,159,0.0,0.0,94,0.00,,,0.00,Wunderground v.1.15,2013-05-04 09:01:00,
2013-05-04 05:02:00,38.3,36.7,30.19,SSE,159,0.0,0.0,94,0.00,,,0.00,Wunderground v.1.15,2013-05-04 09:02:00,
2013-05-04 05:05:00,38.2,36.6,30.19,SSE,159,0.0,1.0,94,0.00,,,0.00,Wunderground v.1.15,2013-05-04 09:05:00,
2013-05-04 05:06:00,38.3,36.7,30.19,SSE,159,0.0,1.0,94,0.00,,,0.00,Wunderground v.1.15,2013-05-04 09:06:00,
2013-05-04 05:09:00,38.2,36.6,30.19,SSE,159,0.0,1.0,94,0.00,,,0.00,Wunderground v.1.15,2013-05-04 09:09:00,
2013-05-04 05:11:00,38.2,36.6,30.19,SSE,159,0.0,0.0,94,0.00,,,0.00,Wunderground v.1.15,2013-05-04 09:11:00,
2013-05-04 05:12:00,38.2,36.6,30.19,SSE,159,0.0,0.0,94,0.00,,,0.00,Wunderground v.1.15,2013-05-04 09:12:00,
2013-05-04 05:13:00,38.2,36.6,30.19,SSE,159,0.0,0.0,94,0.00,,,0.00,Wunderground v.1.15,2013-05-04 09:13:00,
2013-05-04 05:16:00,38.2,36.6,30.19,SSE,159,0.0,0.0,94,0.00,,,0.00,Wunderground v.1.15,2013-05-04 09:16:00,
2013-05-04 05:17:00,38.2,36.6,30.19,SSE,159,0.0,0.0,94,0.00,,,0.00,Wunderground v.1.15,2013-05-04 09:17:00,
2013-05-04 05:18:00,38.2,36.6,30.19,SSE,159,0.0,0.0,94,0.00,,,0.00,Wunderground v.1.15,2013-05-04 09:18:00,
2013-05-04 05:20:00,38.2,36.6,30.19,SSE,159,0.0,0.0,94,0.00,,,0.00,Wunderground v.1.15,2013-05-04 09:20:00,
2013-05-04 05:23:00,38.0,36.4,30.19,SSE,159,0.0,0.0,94,0.00,,,0.00,Wunderground v.1.15,2013-05-04 09:23:00,
2013-05-04 05:24:00,38.0,36.4,30.19,SSE,159,0.0,0.0,94,0.00,,,0.00,Wunderground v.1.15,2013-05-04 09:24:00,
2013-05-04 05:25:00,38.0,36.4,30.19,SSE,159,0.0,0.0,94,0.00,,,0.00,Wunderground v.1.15,2013-05-04 09:25:00,
2013-05-04 05:29:00,38.0,36.4,30.19,SSE,159,0.0,1.0,94,0.00,,,0.00,Wunderground v.1.15,2013-05-04 09:29:00,
2013-05-04 05:30:00,38.0,36.4,30.19,SSE,159,0.0,0.0,94,0.00,,,0.00,Wunderground v.1.15,2013-05-04 09:30:00,
2013-05-04 05:31:00,38.0,36.4,30.19,SSE,159,0.0,0.0,94,0.00,,,0.00,Wunderground v.1.15,2013-05-04 09:31:00,
2013-05-04 05:32:00,38.0,36.4,30.19,SSE,159,0.0,0.0,94,0.00,,,0.00,Wunderground v.1.15,2013-05-04 09:32:00,
2013-05-04 05:35:00,37.9,36.6,30.19,SSE,159,0.0,0.0,95,0.00,,,0.00,Wunderground v.1.15,2013-05-04 09:35:00,
2013-05-04 05:37:00,37.9,36.3,30.19,SSE,159,0.0,0.0,94,0.00,,,0.00,Wunderground v.1.15,2013-05-04 09:37:00,
2013-05-04 05:40:00,37.9,36.3,30.19,SSE,159,0.0,0.0,94,0.00,,,0.00,Wunderground v.1.15,2013-05-04 09:40:00,
2013-05-04 05:42:00,37.8,36.2,30.19,SSE,159,0.0,0.0,94,0.00,,,0.00,Wunderground v.1.15,2013-05-04 09:42:00,
2013-05-04 05:46:00,37.8,36.5,30.19,SSE,159,0.0,0.0,95,0.00,,,0.00,Wunderground v.1.15,2013-05-04 09:46:00,
2013-05-04 05:48:00,37.8,36.5,30.19,SSE,159,0.0,0.0,95,0.00,,,0.00,Wunderground v.1.15,2013-05-04 09:48:00,
2013-05-04 05:50:00,37.6,36.3,30.19,SSE,159,0.0,0.0,95,0.00,,,0.00,Wunderground v.1.15,2013-05-04 09:50:00,
2013-05-04 05:51:00,37.6,36.0,30.19,SSE,159,0.0,0.0,94,0.00,,,0.00,Wunderground v.1.15,2013-05-04 09:51:00,
2013-05-04 05:52:00,37.6,36.0,30.19,SSE,159,0.0,0.0,94,0.00,,,0.00,Wunderground v.1.15,2013-05-04 09:52:00,
2013-05-04 05:54:00,37.5,35.9,30.19,SSE,159,0.0,0.0,94,0.00,,,0.00,Wunderground v.1.15,2013-05-04 09:54:00,
2013-05-04 05:56:00,37.5,36.2,30.19,SSE,159,0.0,0.0,95,0.00,,,0.00,Wunderground v.1.15,2013-05-04 09:56:00,
2013-05-04 05:58:00,37.5,36.2,30.19,SSE,159,0.0,0.0,95,0.00,,,0.00,Wunderground v.1.15,2013-05-04 09:58:00,
2013-05-04 06:01:00,37.3,36.0,30.19,SSE,159,0.0,0.0,95,0.00,,,0.00,Wunderground v.1.15,2013-05-04 10:01:00,
2013-05-04 06:02:00,37.3,36.0,30.20,SSE,159,0.0,0.0,95,0.00,,,0.00,Wunderground v.1.15,2013-05-04 10:02:00,
2013-05-04 06:03:00,37.3,36.0,30.20,SSE,159,0.0,0.0,95,0.00,,,0.00,Wunderground v.1.15,2013-05-04 10:03:00,
2013-05-04 06:05:00,37.3,36.0,30.20,SSE,159,0.0,0.0,95,0.00,,,0.00,Wunderground v.1.15,2013-05-04 10:05:00,
2013-05-04 06:06:00,37.3,36.0,30.20,SSE,159,0.0,0.0,95,0.00,,,0.00,Wunderground v.1.15,2013-05-04 10:06:00,
2013-05-04 06:10:00,37.3,36.0,30.20,SSE,159,0.0,0.0,95,0.00,,,0.00,Wunderground v.1.15,2013-05-04 10:10:00,
2013-05-04 06:11:00,37.3,36.0,30.20,SSE,159,0.0,0.0,95,0.00,,,0.00,Wunderground v.1.15,2013-05-04 10:11:00,
2013-05-04 06:12:00,37.2,35.9,30.20,SSE,159,0.0,0.0,95,0.00,,,0.00,Wunderground v.1.15,2013-05-04 10:12:00,
2013-05-04 06:16:00,37.2,35.9,30.20,SSE,159,0.0,1.0,95,0.00,,,0.00,Wunderground v.1.15,2013-05-04 10:16:00,
2013-05-04 06:18:00,37.2,35.9,30.20,SSE,159,0.0,1.0,95,0.00,,,0.00,Wunderground v.1.15,2013-05-04 10:18:00,
2013-05-04 06:20:00,37.2,35.9,30.20,SSE,159,0.0,0.0,95,0.00,,,0.00,Wunderground v.1.15,2013-05-04 10:20:00,
2013-05-04 06:22:00,37.2,35.9,30.20,SSE,159,0.0,0.0,95,0.00,,,0.00,Wunderground v.1.15,2013-05-04 10:22:00,
2013-05-04 06:26:00,37.0,35.7,30.20,SSE,159,0.0,0.0,95,0.00,,,0.00,Wunderground v.1.15,2013-05-04 10:26:00,
2013-05-04 06:27:00,37.0,35.7,30.20,SSE,159,0.0,0.0,95,0.00,,,0.00,Wunderground v.1.15,2013-05-04 10:27:00,
2013-05-04 06:28:00,37.0,35.7,30.20,SSE,159,0.0,0.0,95,0.00,,,0.00,Wunderground v.1.15,2013-05-04 10:28:00,
2013-05-04 06:32:00,37.0,35.7,30.20,SSE,159,0.0,0.0,95,0.00,,,0.00,Wunderground v.1.15,2013-05-04 10:32:00,
2013-05-04 06:33:00,37.0,35.7,30.20,SSE,159,0.0,0.0,95,0.00,,,0.00,Wunderground v.1.15,2013-05-04 10:33:00,
2013-05-04 06:35:00,37.0,35.7,30.20,SSE,159,0.0,0.0,95,0.00,,,0.00,Wunderground v.1.15,2013-05-04 10:35:00,
2013-05-04 06:36:00,37.0,35.7,30.20,SSE,159,0.0,0.0,95,0.00,,,0.00,Wunderground v.1.15,2013-05-04 10:36:00,
2013-05-04 06:38:00,36.9,35.6,30.20,SSE,159,0.0,0.0,95,0.00,,,0.00,Wunderground v.1.15,2013-05-04 10:38:00,
2013-05-04 06:39:00,36.9,35.6,30.20,SSE,159,0.0,0.0,95,0.00,,,0.00,Wunderground v.1.15,2013-05-04 10:39:00,
2013-05-04 06:41:00,36.9,35.6,30.20,SSE,159,0.0,0.0,95,0.00,,,0.00,Wunderground v.1.15,2013-05-04 10:41:00,
2013-05-04 06:42:00,36.9,35.6,30.20,SSE,159,0.0,0.0,95,0.00,,,0.00,Wunderground v.1.15,2013-05-04 10:42:00,
2013-05-04 06:46:00,36.9,35.6,30.20,SSE,159,0.0,0.0,95,0.00,,,0.00,Wunderground v.1.15,2013-05-04 10:46:00,
2013-05-04 06:47:00,36.9,35.6,30.21,SSE,159,0.0,0.0,95,0.00,,,0.00,Wunderground v.1.15,2013-05-04 10:47:00,
2013-05-04 06:48:00,36.9,35.6,30.21,SSE,159,0.0,0.0,95,0.00,,,0.00,Wunderground v.1.15,2013-05-04 10:48:00,
2013-05-04 06:51:00,36.9,35.6,30.21,SSE,159,0.0,0.0,95,0.00,,,0.00,Wunderground v.1.15,2013-05-04 10:51:00,
2013-05-04 06:53:00,36.9,35.6,30.21,SSE,159,0.0,0.0,95,0.00,,,0.00,Wunderground v.1.15,2013-05-04 10:53:00,
2013-05-04 06:55:00,36.9,35.6,30.21,SSE,159,0.0,0.0,95,0.00,,,0.00,Wunderground v.1.15,2013-05-04 10:55:00,
2013-05-04 06:56:00,36.9,35.6,30.21,SSE,159,0.0,0.0,95,0.00,,,0.00,Wunderground v.1.15,2013-05-04 10:56:00,
2013-05-04 06:57:00,36.9,35.6,30.21,SSE,159,0.0,0.0,95,0.00,,,0.00,Wunderground v.1.15,2013-05-04 10:57:00,
2013-05-04 06:59:00,37.0,35.7,30.21,SSE,159,0.0,0.0,95,0.00,,,0.00,Wunderground v.1.15,2013-05-04 10:59:00,
2013-05-04 07:00:00,37.0,35.7,30.21,SSE,159,0.0,0.0,95,0.00,,,0.00,Wunderground v.1.15,2013-05-04 11:00:00,
2013-05-04 07:03:00,37.0,35.7,30.21,SSE,159,0.0,0.0,95,0.00,,,0.00,Wunderground v.1.15,2013-05-04 11:03:00,
2013-05-04 07:05:00,37.0,35.7,30.21,SSE,159,0.0,0.0,95,0.00,,,0.00,Wunderground v.1.15,2013-05-04 11:05:00,
2013-05-04 07:06:00,37.0,35.7,30.21,SSE,159,0.0,0.0,95,0.00,,,0.00,Wunderground v.1.15,2013-05-04 11:06:00,
2013-05-04 07:07:00,37.0,35.7,30.21,SSE,159,0.0,0.0,95,0.00,,,0.00,Wunderground v.1.15,2013-05-04 11:07:00,
2013-05-04 07:08:00,37.2,35.9,30.21,SSE,159,0.0,0.0,95,0.00,,,0.00,Wunderground v.1.15,2013-05-04 11:08:00,
2013-05-04 07:09:00,37.2,35.9,30.21,SSE,159,0.0,0.0,95,0.00,,,0.00,Wunderground v.1.15,2013-05-04 11:09:00,
2013-05-04 07:11:00,37.2,35.9,30.21,SSE,159,0.0,0.0,95,0.00,,,0.00,Wunderground v.1.15,2013-05-04 11:11:00,
2013-05-04 07:13:00,37.3,36.0,30.21,SSE,159,0.0,0.0,95,0.00,,,0.00,Wunderground v.1.15,2013-05-04 11:13:00,
2013-05-04 07:14:00,37.3,36.0,30.21,SSE,159,0.0,0.0,95,0.00,,,0.00,Wunderground v.1.15,2013-05-04 11:14:00,
2013-05-04 07:16:00,37.5,36.5,30.22,SSE,159,0.0,1.0,96,0.00,,,0.00,Wunderground v.1.15,2013-05-04 11:16:00,
2013-05-04 07:18:00,37.5,36.5,30.22,SSE,159,0.0,1.0,96,0.00,,,0.00,Wunderground v.1.15,2013-05-04 11:18:00,
2013-05-04 07:19:00,37.6,36.6,30.22,SSE,159,0.0,1.0,96,0.00,,,0.00,Wunderground v.1.15,2013-05-04 11:19:00,
2013-05-04 07:20:00,37.6,36.6,30.22,SSE,159,0.0,0.0,96,0.00,,,0.00,Wunderground v.1.15,2013-05-04 11:20:00,
2013-05-04 07:24:00,37.8,36.8,30.22,SSE,159,0.0,2.0,96,0.00,,,0.00,Wunderground v.1.15,2013-05-04 11:24:00,
2013-05-04 07:26:00,37.9,36.9,30.22,SSE,159,0.0,2.0,96,0.00,,,0.00,Wunderground v.1.15,2013-05-04 11:26:00,
2013-05-04 07:27:00,38.0,37.0,30.22,SSE,159,0.0,2.0,96,0.00,,,0.00,Wunderground v.1.15,2013-05-04 11:27:00,
2013-05-04 07:31:00,38.3,37.3,30.22,SSE,159,0.0,0.0,96,0.00,,,0.00,Wunderground v.1.15,2013-05-04 11:31:00,
2013-05-04 07:32:00,38.3,37.3,30.22,SSE,159,0.0,0.0,96,0.00,,,0.00,Wunderground v.1.15,2013-05-04 11:32:00,
2013-05-04 07:36:00,38.6,37.6,30.22,SSE,159,0.0,0.0,96,0.00,,,0.00,Wunderground v.1.15,2013-05-04 11:36:00,
2013-05-04 07:38:00,38.8,37.8,30.22,SSE,159,0.0,0.0,96,0.00,,,0.00,Wunderground v.1.15,2013-05-04 11:38:00,
2013-05-04 07:42:00,39.1,38.1,30.22,SSE,159,0.0,0.0,96,0.00,,,0.00,Wunderground v.1.15,2013-05-04 11:42:00,
2013-05-04 07:43:00,39.2,38.2,30.22,SSE,159,0.0,0.0,96,0.00,,,0.00,Wunderground v.1.15,2013-05-04 11:43:00,
2013-05-04 07:44:00,39.2,38.2,30.22,SSE,159,0.0,0.0,96,0.00,,,0.00,Wunderground v.1.15,2013-05-04 11:44:00,
2013-05-04 07:47:00,39.5,38.5,30.22,SSE,159,0.0,0.0,96,0.00,,,0.00,Wunderground v.1.15,2013-05-04 11:47:00,
2013-05-04 07:49:00,39.6,38.6,30.22,SSE,159,0.0,0.0,96,0.00,,,0.00,Wunderground v.1.15,2013-05-04 11:49:00,
2013-05-04 07:51:00,39.9,38.9,30.22,SSE,159,0.0,0.0,96,0.00,,,0.00,Wunderground v.1.15,2013-05-04 11:51:00,
2013-05-04 07:52:00,39.9,38.9,30.22,SSE,159,0.0,0.0,96,0.00,,,0.00,Wunderground v.1.15,2013-05-04 11:52:00,
2013-05-04 07:54:00,40.2,39.2,30.22,SSE,159,0.0,0.0,96,0.00,,,0.00,Wunderground v.1.15,2013-05-04 11:54:00,
2013-05-04 07:58:00,40.6,39.5,30.22,SSE,159,0.0,0.0,96,0.00,,,0.00,Wunderground v.1.15,2013-05-04 11:58:00,
2013-05-04 07:59:00,40.8,39.7,30.22,SSE,159,0.0,0.0,96,0.00,,,0.00,Wunderground v.1.15,2013-05-04 11:59:00,
2013-05-04 08:00:00,40.9,39.8,30.22,SSE,159,0.0,0.0,96,0.00,,,0.00,Wunderground v.1.15,2013-05-04 12:00:00,
2013-05-04 08:03:00,41.2,40.1,30.22,SSE,159,0.0,0.0,96,0.00,,,0.00,Wunderground v.1.15,2013-05-04 12:03:00,
2013-05-04 08:05:00,41.6,40.5,30.22,SSE,159,0.0,0.0,96,0.00,,,0.00,Wunderground v.1.15,2013-05-04 12:05:00,
2013-05-04 08:08:00,41.8,40.5,30.22,SSE,159,0.0,0.0,95,0.00,,,0.00,Wunderground v.1.15,2013-05-04 12:08:00,
2013-05-04 08:09:00,41.9,40.6,30.22,SSE,159,0.0,1.0,95,0.00,,,0.00,Wunderground v.1.15,2013-05-04 12:09:00,
2013-05-04 08:14:00,42.5,41.2,30.22,SSE,159,0.0,0.0,95,0.00,,,0.00,Wunderground v.1.15,2013-05-04 12:14:00,
2013-05-04 08:15:00,42.8,41.5,30.22,SSE,159,0.0,0.0,95,0.00,,,0.00,Wunderground v.1.15,2013-05-04 12:15:00,
2013-05-04 08:16:00,42.8,41.5,30.22,SSE,153,0.0,1.0,95,0.00,,,0.00,Wunderground v.1.15,2013-05-04 12:16:00,
2013-05-04 08:18:00,43.2,41.9,30.22,NNW,348,0.0,7.0,95,0.00,,,0.00,Wunderground v.1.15,2013-05-04 12:18:00,
2013-05-04 08:22:00,43.9,42.0,30.22,NNE,23,1.0,1.0,93,0.00,,,0.00,Wunderground v.1.15,2013-05-04 12:22:00,
2013-05-04 08:23:00,44.1,41.9,30.22,NW,326,1.0,2.0,92,0.00,,,0.00,Wunderground v.1.15,2013-05-04 12:23:00,
2013-05-04 08:24:00,44.2,42.0,30.22,ENE,61,1.0,2.0,92,0.00,,,0.00,Wunderground v.1.15,2013-05-04 12:24:00,
2013-05-04 08:28:00,44.5,41.5,30.22,NNW,342,2.0,3.0,89,0.00,,,0.00,Wunderground v.1.15,2013-05-04 12:28:00,
2013-05-04 08:29:00,44.6,41.3,30.22,NNW,342,2.0,3.0,88,0.00,,,0.00,Wunderground v.1.15,2013-05-04 12:29:00,
2013-05-04 08:31:00,44.8,41.5,30.22,NNW,342,2.0,2.0,88,0.00,,,0.00,Wunderground v.1.15,2013-05-04 12:31:00,
2013-05-04 08:32:00,44.9,41.6,30.22,West,269,1.0,6.0,88,0.00,,,0.00,Wunderground v.1.15,2013-05-04 12:32:00,
2013-05-04 08:33:00,44.9,41.3,30.22,NNE,18,2.0,6.0,87,0.00,,,0.00,Wunderground v.1.15,2013-05-04 12:33:00,
2013-05-04 08:34:00,44.9,41.3,30.22,NNE,13,2.0,6.0,87,0.00,,,0.00,Wunderground v.1.15,2013-05-04 12:34:00,
2013-05-04 08:38:00,45.1,40.9,30.22,North,10,1.0,7.0,85,0.00,,,0.00,Wunderground v.1.15,2013-05-04 12:38:00,
2013-05-04 08:39:00,45.1,40.6,30.22,North,11,1.0,7.0,84,0.00,,,0.00,Wunderground v.1.15,2013-05-04 12:39:00,
2013-05-04 08:40:00,45.1,40.6,30.22,North,11,2.0,4.0,84,0.00,,,0.00,Wunderground v.1.15,2013-05-04 12:40:00,
2013-05-04 08:41:00,45.1,40.6,30.22,North,9,2.0,4.0,84,0.00,,,0.00,Wunderground v.1.15,2013-05-04 12:41:00,
2013-05-04 08:45:00,45.2,40.3,30.22,North,11,2.0,4.0,83,0.00,,,0.00,Wunderground v.1.15,2013-05-04 12:45:00,
2013-05-04 08:46:00,45.2,40.0,30.22,North,11,2.0,4.0,82,0.00,,,0.00,Wunderground v.1.15,2013-05-04 12:46:00,
2013-05-04 08:48:00,45.2,40.0,30.22,North,360,2.0,4.0,82,0.00,,,0.00,Wunderground v.1.15,2013-05-04 12:48:00,
2013-05-04 08:52:00,45.2,39.7,30.22,North,5,2.0,2.0,81,0.00,,,0.00,Wunderground v.1.15,2013-05-04 12:52:00,
2013-05-04 08:53:00,45.2,39.4,30.22,North,355,2.0,4.0,80,0.00,,,0.00,Wunderground v.1.15,2013-05-04 12:53:00,
2013-05-04 08:56:00,45.4,39.6,30.22,NNE,19,2.0,4.0,80,0.00,,,0.00,Wunderground v.1.15,2013-05-04 12:56:00,
2013-05-04 08:57:00,45.4,39.6,30.22,NNE,19,2.0,4.0,80,0.00,,,0.00,Wunderground v.1.15,2013-05-04 12:57:00,
2013-05-04 09:01:00,45.4,39.3,30.22,NNE,15,2.0,4.0,79,0.00,,,0.00,Wunderground v.1.15,2013-05-04 13:01:00,
2013-05-04 09:02:00,45.5,39.4,30.22,NNE,15,2.0,4.0,79,0.00,,,0.00,Wunderground v.1.15,2013-05-04 13:02:00,
2013-05-04 09:04:00,45.5,39.4,30.22,NNE,15,1.0,4.0,79,0.00,,,0.00,Wunderground v.1.15,2013-05-04 13:04:00,
2013-05-04 09:06:00,45.7,39.2,30.22,NNE,15,1.0,4.0,78,0.00,,,0.00,Wunderground v.1.15,2013-05-04 13:06:00,
2013-05-04 09:07:00,45.7,39.2,30.22,NNE,15,1.0,4.0,78,0.00,,,0.00,Wunderground v.1.15,2013-05-04 13:07:00,
2013-05-04 09:09:00,45.8,39.7,30.22,NNE,15,1.0,4.0,79,0.00,,,0.00,Wunderground v.1.15,2013-05-04 13:09:00,
2013-05-04 09:12:00,46.0,39.5,30.22,NNE,15,0.0,1.0,78,0.00,,,0.00,Wunderground v.1.15,2013-05-04 13:12:00,
2013-05-04 09:13:00,46.0,39.5,30.22,NNE,15,0.0,1.0,78,0.00,,,0.00,Wunderground v.1.15,2013-05-04 13:13:00,
2013-05-04 09:14:00,46.0,39.5,30.22,NNE,15,0.0,1.0,78,0.00,,,0.00,Wunderground v.1.15,2013-05-04 13:14:00,
2013-05-04 09:16:00,46.1,39.3,30.22,NNE,15,0.0,1.0,77,0.00,,,0.00,Wunderground v.1.15,2013-05-04 13:16:00,
2013-05-04 09:18:00,46.1,39.3,30.22,NNE,15,0.0,1.0,77,0.00,,,0.00,Wunderground v.1.15,2013-05-04 13:18:00,
2013-05-04 09:20:00,46.2,39.4,30.22,NNE,15,0.0,1.0,77,0.00,,,0.00,Wunderground v.1.15,2013-05-04 13:20:00,
2013-05-04 09:21:00,46.2,39.4,30.22,NNE,15,0.0,1.0,77,0.00,,,0.00,Wunderground v.1.15,2013-05-04 13:21:00,
2013-05-04 09:22:00,46.2,39.4,30.22,NNE,15,0.0,3.0,77,0.00,,,0.00,Wunderground v.1.15,2013-05-04 13:22:00,
2013-05-04 09:23:00,46.2,39.4,30.22,NNE,15,0.0,3.0,77,0.00,,,0.00,Wunderground v.1.15,2013-05-04 13:23:00,
2013-05-04 09:26:00,46.4,39.2,30.22,NNE,15,1.0,3.0,76,0.00,,,0.00,Wunderground v.1.15,2013-05-04 13:26:00,
2013-05-04 09:27:00,46.5,39.3,30.22,NNE,15,1.0,3.0,76,0.00,,,0.00,Wunderground v.1.15,2013-05-04 13:27:00,
2013-05-04 09:31:00,46.8,39.6,30.22,NNE,15,1.0,1.0,76,0.00,,,0.00,Wunderground v.1.15,2013-05-04 13:31:00,
2013-05-04 09:32:00,47.0,39.8,30.21,NNE,15,1.0,1.0,76,0.00,,,0.00,Wunderground v.1.15,2013-05-04 13:32:00,
2013-05-04 09:35:00,47.3,39.8,30.21,NNE,17,0.0,5.0,75,0.00,,,0.00,Wunderground v.1.15,2013-05-04 13:35:00,
2013-05-04 09:37:00,47.4,39.5,30.21,NNE,19,1.0,5.0,74,0.00,,,0.00,Wunderground v.1.15,2013-05-04 13:37:00,
2013-05-04 09:39:00,47.7,39.8,30.21,NNE,23,1.0,5.0,74,0.00,,,0.00,Wunderground v.1.15,2013-05-04 13:39:00,
2013-05-04 09:42:00,48.0,39.4,30.21,NNE,23,1.0,1.0,72,0.00,,,0.00,Wunderground v.1.15,2013-05-04 13:42:00,
2013-05-04 09:44:00,48.2,40.3,30.21,NNE,23,1.0,1.0,74,0.00,,,0.00,Wunderground v.1.15,2013-05-04 13:44:00,
2013-05-04 09:45:00,48.3,40.0,30.21,NNE,17,1.0,7.0,73,0.00,,,0.00,Wunderground v.1.15,2013-05-04 13:45:00,
2013-05-04 09:47:00,48.3,39.7,30.20,North,5,1.0,7.0,72,0.00,,,0.00,Wunderground v.1.15,2013-05-04 13:47:00,
2013-05-04 09:50:00,48.3,40.0,30.20,WNW,296,1.0,2.0,73,0.00,,,0.00,Wunderground v.1.15,2013-05-04 13:50:00,
2013-05-04 09:52:00,48.5,40.2,30.20,WNW,296,1.0,2.0,73,0.00,,,0.00,Wunderground v.1.15,2013-05-04 13:52:00,
2013-05-04 09:54:00,48.5,39.9,30.20,WNW,296,2.0,2.0,72,0.00,,,0.00,Wunderground v.1.15,2013-05-04 13:54:00,
2013-05-04 09:56:00,48.8,40.9,30.20,WNW,296,2.0,2.0,74,0.00,,,0.00,Wunderground v.1.15,2013-05-04 13:56:00,
2013-05-04 09:58:00,48.9,40.6,30.20,WNW,296,1.0,4.0,73,0.00,,,0.00,Wunderground v.1.15,2013-05-04 13:58:00,
2013-05-04 10:00:00,49.4,41.1,30.20,WNW,296,1.0,2.0,73,0.00,,,0.00,Wunderground v.1.15,2013-05-04 14:00:00,
2013-05-04 10:02:00,49.4,40.4,30.20,WNW,296,1.0,2.0,71,0.00,,,0.00,Wunderground v.1.15,2013-05-04 14:02:00,
2013-05-04 10:04:00,49.5,40.5,30.20,WNW,296,1.0,2.0,71,0.00,,,0.00,Wunderground v.1.15,2013-05-04 14:04:00,
2013-05-04 10:06:00,49.5,39.7,30.20,WNW,296,1.0,2.0,69,0.00,,,0.00,Wunderground v.1.15,2013-05-04 14:06:00,
2013-05-04 10:07:00,49.6,40.6,30.20,WNW,296,1.0,2.0,71,0.00,,,0.00,Wunderground v.1.15,2013-05-04 14:07:00,
2013-05-04 10:09:00,49.8,41.1,30.20,WNW,297,1.0,2.0,72,0.00,,,0.00,Wunderground v.1.15,2013-05-04 14:09:00,
2013-05-04 10:10:00,49.9,41.6,30.20,WNW,297,1.0,1.0,73,0.00,,,0.00,Wunderground v.1.15,2013-05-04 14:10:00,
2013-05-04 10:13:00,50.2,41.2,30.20,WNW,297,1.0,1.0,71,0.00,,,0.00,Wunderground v.1.15,2013-05-04 14:13:00,
2013-05-04 10:15:00,50.5,41.4,30.20,NNW,344,1.0,6.0,71,0.00,,,0.00,Wunderground v.1.15,2013-05-04 14:15:00,
2013-05-04 10:16:00,50.7,41.6,30.20,NNW,348,1.0,6.0,71,0.00,,,0.00,Wunderground v.1.15,2013-05-04 14:16:00,
2013-05-04 10:17:00,50.7,40.1,30.20,NNW,348,1.0,6.0,67,0.00,,,0.00,Wunderground v.1.15,2013-05-04 14:17:00,
2013-05-04 10:19:00,50.7,40.1,30.20,North,355,2.0,6.0,67,0.00,,,0.00,Wunderground v.1.15,2013-05-04 14:19:00,
2013-05-04 10:20:00,50.8,40.2,30.20,North,355,1.0,1.0,67,0.00,,,0.00,Wunderground v.1.15,2013-05-04 14:20:00,
2013-05-04 10:23:00,51.0,41.2,30.20,WNW,294,1.0,6.0,69,0.00,,,0.00,Wunderground v.1.15,2013-05-04 14:23:00,
2013-05-04 10:24:00,50.8,39.8,30.20,WNW,289,2.0,6.0,66,0.00,,,0.00,Wunderground v.1.15,2013-05-04 14:24:00,
2013-05-04 10:26:00,50.8,40.6,30.20,WNW,289,2.0,6.0,68,0.00,,,0.00,Wunderground v.1.15,2013-05-04 14:26:00,
2013-05-04 10:31:00,51.0,40.8,30.20,NW,311,1.0,1.0,68,0.00,,,0.00,Wunderground v.1.15,2013-05-04 14:31:00,
2013-05-04 10:32:00,51.1,41.3,30.20,North,355,1.0,4.0,69,0.00,,,0.00,Wunderground v.1.15,2013-05-04 14:32:00,
2013-05-04 10:34:00,51.3,40.3,30.20,North,355,2.0,4.0,66,0.00,,,0.00,Wunderground v.1.15,2013-05-04 14:34:00,
2013-05-04 10:35:00,51.4,41.2,30.20,ESE,102,2.0,4.0,68,0.00,,,0.00,Wunderground v.1.15,2013-05-04 14:35:00,
2013-05-04 10:37:00,51.6,40.2,30.20,East,84,2.0,4.0,65,0.00,,,0.00,Wunderground v.1.15,2013-05-04 14:37:00,
2013-05-04 10:39:00,51.7,41.1,30.20,East,84,2.0,4.0,67,0.00,,,0.00,Wunderground v.1.15,2013-05-04 14:39:00,
2013-05-04 10:41:00,52.0,41.0,30.20,East,83,2.0,2.0,66,0.00,,,0.00,Wunderground v.1.15,2013-05-04 14:41:00,
2013-05-04 10:43:00,52.2,41.6,30.20,East,83,1.0,2.0,67,0.00,,,0.00,Wunderground v.1.15,2013-05-04 14:43:00,
2013-05-04 10:45:00,52.5,41.5,30.20,WNW,301,1.0,2.0,66,0.00,,,0.00,Wunderground v.1.15,2013-05-04 14:45:00,
2013-05-04 10:49:00,52.5,41.9,30.19,WNW,300,1.0,4.0,67,0.00,,,0.00,Wunderground v.1.15,2013-05-04 14:49:00,
2013-05-04 10:50:00,52.5,41.9,30.19,WNW,291,1.0,2.0,67,0.00,,,0.00,Wunderground v.1.15,2013-05-04 14:50:00,
2013-05-04 10:51:00,52.5,41.5,30.19,WNW,298,1.0,2.0,66,0.00,,,0.00,Wunderground v.1.15,2013-05-04 14:51:00,
2013-05-04 10:55:00,52.2,41.2,30.19,WNW,296,2.0,4.0,66,0.00,,,0.00,Wunderground v.1.15,2013-05-04 14:55:00,
2013-05-04 10:58:00,51.9,40.9,30.19,WNW,296,2.0,4.0,66,0.00,,,0.00,Wunderground v.1.15,2013-05-04 14:58:00,
2013-05-04 11:00:00,51.9,41.7,30.19,WNW,297,2.0,4.0,68,0.00,,,0.00,Wunderground v.1.15,2013-05-04 15:00:00,
2013-05-04 11:01:00,51.9,41.7,30.19,WNW,299,2.0,4.0,68,0.00,,,0.00,Wunderground v.1.15,2013-05-04 15:01:00,
2013-05-04 11:04:00,52.2,41.6,30.18,WNW,296,2.0,4.0,67,0.00,,,0.00,Wunderground v.1.15,2013-05-04 15:04:00,
2013-05-04 11:06:00,52.3,41.7,30.18,WNW,296,2.0,4.0,67,0.00,,,0.00,Wunderground v.1.15,2013-05-04 15:06:00,
2013-05-04 11:10:00,53.1,42.4,30.18,ENE,65,2.0,2.0,67,0.00,,,0.00,Wunderground v.1.15,2013-05-04 15:10:00,
2013-05-04 11:12:00,53.3,42.2,30.18,NNW,330,2.0,2.0,66,0.00,,,0.00,Wunderground v.1.15,2013-05-04 15:12:00,
2013-05-04 11:14:00,53.5,41.6,30.18,NNW,330,2.0,2.0,64,0.00,,,0.00,Wunderground v.1.15,2013-05-04 15:14:00,
2013-05-04 11:15:00,53.9,42.4,30.18,NNW,331,2.0,2.0,65,0.00,,,0.00,Wunderground v.1.15,2013-05-04 15:15:00,
2013-05-04 11:17:00,54.4,43.7,30.18,NNW,331,1.0,2.0,67,0.00,,,0.00,Wunderground v.1.15,2013-05-04 15:17:00,
2013-05-04 11:18:00,54.7,43.2,30.18,NNW,327,1.0,2.0,65,0.00,,,0.00,Wunderground v.1.15,2013-05-04 15:18:00,
2013-05-04 11:21:00,55.0,43.0,30.18,NNW,327,1.0,1.0,64,0.00,,,0.00,Wunderground v.1.15,2013-05-04 15:21:00,
2013-05-04 11:23:00,55.4,44.2,30.18,NNW,334,1.0,2.0,66,0.00,,,0.00,Wunderground v.1.15,2013-05-04 15:23:00,
2013-05-04 11:25:00,55.7,43.7,30.18,NNW,336,1.0,5.0,64,0.00,,,0.00,Wunderground v.1.15,2013-05-04 15:25:00,
2013-05-04 11:27:00,55.9,42.6,30.18,North,351,1.0,5.0,61,0.00,,,0.00,Wunderground v.1.15,2013-05-04 15:27:00,
2013-05-04 11:30:00,56.0,43.6,30.18,North,355,1.0,1.0,63,0.00,,,0.00,Wunderground v.1.15,2013-05-04 15:30:00,
2013-05-04 11:31:00,56.0,42.7,30.18,North,355,1.0,1.0,61,0.00,,,0.00,Wunderground v.1.15,2013-05-04 15:31:00,
2013-05-04 11:34:00,56.5,43.2,30.18,NNW,337,1.0,2.0,61,0.00,,,0.00,Wunderground v.1.15,2013-05-04 15:34:00,
2013-05-04 11:38:00,56.5,43.6,30.18,NW,315,2.0,2.0,62,0.00,,,0.00,Wunderground v.1.15,2013-05-04 15:38:00,
2013-05-04 11:40:00,56.5,43.2,30.18,NNW,344,2.0,4.0,61,0.00,,,0.00,Wunderground v.1.15,2013-05-04 15:40:00,
2013-05-04 11:41:00,56.6,42.0,30.18,NNW,343,2.0,4.0,58,0.00,,,0.00,Wunderground v.1.15,2013-05-04 15:41:00,
2013-05-04 11:43:00,56.6,42.0,30.18,NNW,343,2.0,4.0,58,0.00,,,0.00,Wunderground v.1.15,2013-05-04 15:43:00,
2013-05-04 11:45:00,56.5,42.8,30.18,WNW,302,2.0,4.0,60,0.00,,,0.00,Wunderground v.1.15,2013-05-04 15:45:00,
2013-05-04 11:46:00,56.5,44.0,30.18,WNW,300,2.0,4.0,63,0.00,,,0.00,Wunderground v.1.15,2013-05-04 15:46:00,
2013-05-04 11:47:00,56.3,43.0,30.17,WNW,299,2.0,4.0,61,0.00,,,0.00,Wunderground v.1.15,2013-05-04 15:47:00,
2013-05-04 11:48:00,56.2,42.9,30.17,WNW,299,2.0,4.0,61,0.00,,,0.00,Wunderground v.1.15,2013-05-04 15:48:00,
2013-05-04 11:52:00,56.5,43.6,30.17,NNW,331,2.0,2.0,62,0.00,,,0.00,Wunderground v.1.15,2013-05-04 15:52:00,
2013-05-04 11:56:00,56.6,42.4,30.17,NW,308,3.0,5.0,59,0.00,,,0.00,Wunderground v.1.15,2013-05-04 15:56:00,
2013-05-04 11:57:00,56.7,43.0,30.17,WNW,303,2.0,5.0,60,0.00,,,0.00,Wunderground v.1.15,2013-05-04 15:57:00,
2013-05-04 11:59:00,57.3,43.5,30.17,NNW,334,2.0,5.0,60,0.00,,,0.00,Wunderground v.1.15,2013-05-04 15:59:00,
2013-05-04 12:00:00,57.6,43.8,30.17,NNW,336,2.0,2.0,60,0.00,,,0.00,Wunderground v.1.15,2013-05-04 16:00:00,
2013-05-04 12:01:00,57.8,44.0,30.17,NNW,336,2.0,2.0,60,0.00,,,0.00,Wunderground v.1.15,2013-05-04 16:01:00,
2013-05-04 12:06:00,58.9,44.1,30.16,West,272,2.0,5.0,58,0.00,,,0.00,Wunderground v.1.15,2013-05-04 16:06:00,
2013-05-04 12:07:00,59.0,44.2,30.16,NNW,332,2.0,5.0,58,0.00,,,0.00,Wunderground v.1.15,2013-05-04 16:07:00,
2013-05-04 12:08:00,59.2,44.0,30.16,NNW,333,2.0,5.0,57,0.00,,,0.00,Wunderground v.1.15,2013-05-04 16:08:00,
2013-05-04 12:10:00,59.3,43.6,30.16,West,279,2.0,6.0,56,0.00,,,0.00,Wunderground v.1.15,2013-05-04 16:10:00,
2013-05-04 12:11:00,59.3,45.0,30.16,North,5,2.0,6.0,59,0.00,,,0.00,Wunderground v.1.15,2013-05-04 16:11:00,
2013-05-04 12:13:00,59.5,43.8,30.16,WNW,300,2.0,11.0,56,0.00,,,0.00,Wunderground v.1.15,2013-05-04 16:13:00,
2013-05-04 12:14:00,59.3,42.6,30.16,North,349,3.0,11.0,54,0.00,,,0.00,Wunderground v.1.15,2013-05-04 16:14:00,
2013-05-04 12:19:00,59.2,44.4,30.16,WNW,283,3.0,11.0,58,0.00,,,0.00,Wunderground v.1.15,2013-05-04 16:19:00,
2013-05-04 12:21:00,59.2,44.4,30.16,WNW,283,3.0,3.0,58,0.00,,,0.00,Wunderground v.1.15,2013-05-04 16:21:00,
2013-05-04 12:22:00,59.2,44.0,30.16,WNW,283,2.0,3.0,57,0.00,,,0.00,Wunderground v.1.15,2013-05-04 16:22:00,
2013-05-04 12:23:00,59.2,43.0,30.16,WNW,283,2.0,3.0,55,0.00,,,0.00,Wunderground v.1.15,2013-05-04 16:23:00,
2013-05-04 12:24:00,59.2,43.0,30.16,WNW,283,2.0,3.0,55,0.00,,,0.00,Wunderground v.1.15,2013-05-04 16:24:00,
2013-05-04 12:27:00,59.5,44.7,30.16,West,275,1.0,3.0,58,0.00,,,0.00,Wunderground v.1.15,2013-05-04 16:27:00,
2013-05-04 12:29:00,59.9,44.6,30.16,NNW,344,1.0,6.0,57,0.00,,,0.00,Wunderground v.1.15,2013-05-04 16:29:00,
2013-05-04 12:31:00,60.2,44.9,30.16,WSW,251,2.0,3.0,57,0.00,,,0.00,Wunderground v.1.15,2013-05-04 16:31:00,
2013-05-04 12:32:00,60.4,45.1,30.15,North,360,2.0,4.0,57,0.00,,,0.00,Wunderground v.1.15,2013-05-04 16:32:00,
2013-05-04 12:35:00,60.4,44.2,30.15,NNW,334,3.0,7.0,55,0.00,,,0.00,Wunderground v.1.15,2013-05-04 16:35:00,
2013-05-04 12:36:00,60.4,44.2,30.15,NNE,13,3.0,8.0,55,0.00,,,0.00,Wunderground v.1.15,2013-05-04 16:36:00,
2013-05-04 12:39:00,60.4,43.7,30.15,WNW,284,4.0,8.0,54,0.00,,,0.00,Wunderground v.1.15,2013-05-04 16:39:00,
2013-05-04 12:42:00,60.2,44.9,30.15,West,269,4.0,4.0,57,0.00,,,0.00,Wunderground v.1.15,2013-05-04 16:42:00,
2013-05-04 12:43:00,60.4,45.1,30.15,West,271,4.0,4.0,57,0.00,,,0.00,Wunderground v.1.15,2013-05-04 16:43:00,
2013-05-04 12:44:00,60.5,44.2,30.15,NW,315,3.0,4.0,55,0.00,,,0.00,Wunderground v.1.15,2013-05-04 16:44:00,
2013-05-04 12:45:00,60.5,43.3,30.15,NNW,328,3.0,4.0,53,0.00,,,0.00,Wunderground v.1.15,2013-05-04 16:45:00,
2013-05-04 12:46:00,60.7,45.4,30.15,NW,316,3.0,4.0,57,0.00,,,0.00,Wunderground v.1.15,2013-05-04 16:46:00,
2013-05-04 12:50:00,61.3,45.0,30.15,NW,317,2.0,2.0,55,0.00,,,0.00,Wunderground v.1.15,2013-05-04 16:50:00,
2013-05-04 12:51:00,61.6,46.2,30.15,NW,318,2.0,2.0,57,0.00,,,0.00,Wunderground v.1.15,2013-05-04 16:51:00,
2013-05-04 12:53:00,61.8,45.9,30.15,North,5,2.0,2.0,56,0.00,,,0.00,Wunderground v.1.15,2013-05-04 16:53:00,
2013-05-04 12:55:00,62.1,44.8,30.15,NE,36,2.0,4.0,53,0.00,,,0.00,Wunderground v.1.15,2013-05-04 16:55:00,
2013-05-04 12:57:00,62.4,44.0,30.15,WNW,297,2.0,4.0,51,0.00,,,0.00,Wunderground v.1.15,2013-05-04 16:57:00,
2013-05-04 12:58:00,62.4,46.0,30.15,NW,311,2.0,4.0,55,0.00,,,0.00,Wunderground v.1.15,2013-05-04 16:58:00,
2013-05-04 13:00:00,62.4,47.0,30.15,NNE,19,2.0,4.0,57,0.00,,,0.00,Wunderground v.1.15,2013-05-04 17:00:00,
2013-05-04 13:02:00,62.4,45.5,30.15,NNE,17,2.0,4.0,54,0.00,,,0.00,Wunderground v.1.15,2013-05-04 17:02:00,
2013-05-04 13:05:00,62.3,45.9,30.15,NNW,340,2.0,7.0,55,0.00,,,0.00,Wunderground v.1.15,2013-05-04 17:05:00,
2013-05-04 13:08:00,62.3,46.4,30.15,North,351,2.0,7.0,56,0.00,,,0.00,Wunderground v.1.15,2013-05-04 17:08:00,
2013-05-04 13:09:00,62.4,46.0,30.15,North,9,2.0,7.0,55,0.00,,,0.00,Wunderground v.1.15,2013-05-04 17:09:00,
2013-05-04 13:10:00,62.4,46.0,30.15,North,9,2.0,2.0,55,0.00,,,0.00,Wunderground v.1.15,2013-05-04 17:10:00,
2013-05-04 13:11:00,62.4,45.5,30.15,North,360,2.0,2.0,54,0.00,,,0.00,Wunderground v.1.15,2013-05-04 17:11:00,
2013-05-04 13:14:00,62.3,46.4,30.15,NW,326,2.0,6.0,56,0.00,,,0.00,Wunderground v.1.15,2013-05-04 17:14:00,
2013-05-04 13:15:00,62.1,45.7,30.15,WNW,295,2.0,6.0,55,0.00,,,0.00,Wunderground v.1.15,2013-05-04 17:15:00,
2013-05-04 13:16:00,62.0,45.6,30.15,WNW,295,2.0,6.0,55,0.00,,,0.00,Wunderground v.1.15,2013-05-04 17:16:00,
2013-05-04 13:17:00,61.8,45.0,30.15,WNW,295,2.0,6.0,54,0.00,,,0.00,Wunderground v.1.15,2013-05-04 17:17:00,
2013-05-04 13:18:00,61.5,45.7,30.15,WNW,296,2.0,6.0,56,0.00,,,0.00,Wunderground v.1.15,2013-05-04 17:18:00,
2013-05-04 13:20:00,61.2,44.4,30.15,WNW,298,2.0,2.0,54,0.00,,,0.00,Wunderground v.1.15,2013-05-04 17:20:00,
2013-05-04 13:22:00,61.0,44.7,30.15,NW,324,2.0,3.0,55,0.00,,,0.00,Wunderground v.1.15,2013-05-04 17:22:00,
2013-05-04 13:25:00,61.2,44.9,30.15,NW,325,2.0,3.0,55,0.00,,,0.00,Wunderground v.1.15,2013-05-04 17:25:00,
2013-05-04 13:27:00,61.2,44.9,30.15,NW,325,2.0,3.0,55,0.00,,,0.00,Wunderground v.1.15,2013-05-04 17:27:00,
2013-05-04 13:28:00,61.2,45.8,30.15,WNW,298,1.0,5.0,57,0.00,,,0.00,Wunderground v.1.15,2013-05-04 17:28:00,
2013-05-04 13:33:00,61.0,45.7,30.15,NNE,17,1.0,4.0,57,0.00,,,0.00,Wunderground v.1.15,2013-05-04 17:33:00,
2013-05-04 13:34:00,61.0,44.7,30.15,North,355,1.0,6.0,55,0.00,,,0.00,Wunderground v.1.15,2013-05-04 17:34:00,
2013-05-04 13:35:00,61.2,44.9,30.15,NW,308,2.0,6.0,55,0.00,,,0.00,Wunderground v.1.15,2013-05-04 17:35:00,
2013-05-04 13:36:00,61.2,45.4,30.15,NNW,334,2.0,6.0,56,0.00,,,0.00,Wunderground v.1.15,2013-05-04 17:36:00,
2013-05-04 13:37:00,61.2,44.4,30.15,North,355,2.0,6.0,54,0.00,,,0.00,Wunderground v.1.15,2013-05-04 17:37:00,
2013-05-04 13:38:00,61.2,44.9,30.15,NNE,16,3.0,6.0,55,0.00,,,0.00,Wunderground v.1.15,2013-05-04 17:38:00,
2013-05-04 13:41:00,61.2,43.9,30.15,North,5,3.0,4.0,53,0.00,,,0.00,Wunderground v.1.15,2013-05-04 17:41:00,
2013-05-04 13:42:00,61.2,43.9,30.15,NNW,348,3.0,4.0,53,0.00,,,0.00,Wunderground v.1.15,2013-05-04 17:42:00,
2013-05-04 13:44:00,61.2,44.9,30.15,NNW,335,4.0,4.0,55,0.00,,,0.00,Wunderground v.1.15,2013-05-04 17:44:00,
2013-05-04 13:47:00,61.3,45.9,30.14,NNW,346,3.0,4.0,57,0.00,,,0.00,Wunderground v.1.15,2013-05-04 17:47:00,
2013-05-04 13:50:00,61.5,45.7,30.14,North,351,2.0,5.0,56,0.00,,,0.00,Wunderground v.1.15,2013-05-04 17:50:00,
2013-05-04 13:51:00,61.6,44.8,30.14,North,355,2.0,5.0,54,0.00,,,0.00,Wunderground v.1.15,2013-05-04 17:51:00,
2013-05-04 13:53:00,61.8,45.0,30.14,North,355,2.0,6.0,54,0.00,,,0.00,Wunderground v.1.15,2013-05-04 17:53:00,
2013-05-04 13:57:00,62.1,45.7,30.14,NNW,343,2.0,6.0,55,0.00,,,0.00,Wunderground v.1.15,2013-05-04 17:57:00,
2013-05-04 13:59:00,62.3,44.4,30.14,NW,326,3.0,6.0,52,0.00,,,0.00,Wunderground v.1.15,2013-05-04 17:59:00,
2013-05-04 14:00:00,62.4,44.0,30.14,NNW,336,3.0,4.0,51,0.00,,,0.00,Wunderground v.1.15,2013-05-04 18:00:00,
2013-05-04 14:02:00,62.6,44.7,30.13,NW,306,3.0,4.0,52,0.00,,,0.00,Wunderground v.1.15,2013-05-04 18:02:00,
2013-05-04 14:05:00,63.2,45.3,30.13,NNW,342,3.0,4.0,52,0.00,,,0.00,Wunderground v.1.15,2013-05-04 18:05:00,
2013-05-04 14:06:00,63.2,44.8,30.13,North,355,3.0,4.0,51,0.00,,,0.00,Wunderground v.1.15,2013-05-04 18:06:00,
2013-05-04 14:07:00,63.4,44.9,30.13,North,350,3.0,5.0,51,0.00,,,0.00,Wunderground v.1.15,2013-05-04 18:07:00,
2013-05-04 14:09:00,64.0,47.5,30.13,SE,128,3.0,5.0,55,0.00,,,0.00,Wunderground v.1.15,2013-05-04 18:09:00,
2013-05-04 14:13:00,64.5,45.4,30.13,SSE,159,2.0,2.0,50,0.00,,,0.00,Wunderground v.1.15,2013-05-04 18:13:00,
2013-05-04 14:15:00,64.5,46.0,30.13,SSE,161,2.0,2.0,51,0.00,,,0.00,Wunderground v.1.15,2013-05-04 18:15:00,
2013-05-04 14:17:00,64.5,46.5,30.13,West,266,2.0,2.0,52,0.00,,,0.00,Wunderground v.1.15,2013-05-04 18:17:00,
2013-05-04 14:20:00,64.5,47.0,30.13,North,355,2.0,5.0,53,0.00,,,0.00,Wunderground v.1.15,2013-05-04 18:20:00,
2013-05-04 14:21:00,64.5,47.0,30.13,WNW,294,2.0,5.0,53,0.00,,,0.00,Wunderground v.1.15,2013-05-04 18:21:00,
2013-05-04 14:22:00,64.5,46.5,30.13,WNW,299,2.0,5.0,52,0.00,,,0.00,Wunderground v.1.15,2013-05-04 18:22:00,
2013-05-04 14:26:00,64.0,46.0,30.13,South,191,2.0,8.0,52,0.00,,,0.00,Wunderground v.1.15,2013-05-04 18:26:00,
2013-05-04 14:27:00,63.9,45.9,30.13,NW,317,3.0,8.0,52,0.00,,,0.00,Wunderground v.1.15,2013-05-04 18:27:00,
2013-05-04 14:28:00,63.9,45.9,30.13,South,171,3.0,8.0,52,0.00,,,0.00,Wunderground v.1.15,2013-05-04 18:28:00,
2013-05-04 14:29:00,63.7,45.7,30.13,SE,132,3.0,8.0,52,0.00,,,0.00,Wunderground v.1.15,2013-05-04 18:29:00,
2013-05-04 14:34:00,63.2,45.8,30.13,ESE,122,3.0,5.0,53,0.00,,,0.00,Wunderground v.1.15,2013-05-04 18:34:00,
2013-05-04 14:35:00,63.1,46.2,30.13,SE,146,3.0,6.0,54,0.00,,,0.00,Wunderground v.1.15,2013-05-04 18:35:00,
2013-05-04 14:37:00,62.9,46.0,30.13,South,186,3.0,6.0,54,0.00,,,0.00,Wunderground v.1.15,2013-05-04 18:37:00,
2013-05-04 14:40:00,62.9,46.5,30.13,SE,124,3.0,4.0,55,0.00,,,0.00,Wunderground v.1.15,2013-05-04 18:40:00,
2013-05-04 14:41:00,62.9,46.0,30.13,SE,132,3.0,4.0,54,0.00,,,0.00,Wunderground v.1.15,2013-05-04 18:41:00,
2013-05-04 14:42:00,62.9,46.0,30.13,SE,130,3.0,4.0,54,0.00,,,0.00,Wunderground v.1.15,2013-05-04 18:42:00,
2013-05-04 14:45:00,62.9,46.0,30.13,South,182,3.0,4.0,54,0.00,,,0.00,Wunderground v.1.15,2013-05-04 18:45:00,
2013-05-04 14:46:00,62.9,46.0,30.13,SSW,194,3.0,4.0,54,0.00,,,0.00,Wunderground v.1.15,2013-05-04 18:46:00,
2013-05-04 14:47:00,62.7,45.8,30.13,WSW,240,3.0,4.0,54,0.00,,,0.00,Wunderground v.1.15,2013-05-04 18:47:00,
2013-05-04 14:48:00,62.7,46.3,30.13,SW,225,3.0,4.0,55,0.00,,,0.00,Wunderground v.1.15,2013-05-04 18:48:00,
2013-05-04 14:49:00,62.7,46.3,30.13,West,259,3.0,4.0,55,0.00,,,0.00,Wunderground v.1.15,2013-05-04 18:49:00,
2013-05-04 14:53:00,62.9,46.0,30.13,North,355,2.0,3.0,54,0.00,,,0.00,Wunderground v.1.15,2013-05-04 18:53:00,
2013-05-04 14:54:00,62.9,46.0,30.13,East,89,2.0,3.0,54,0.00,,,0.00,Wunderground v.1.15,2013-05-04 18:54:00,
2013-05-04 14:57:00,62.7,45.8,30.13,SSW,197,3.0,4.0,54,0.00,,,0.00,Wunderground v.1.15,2013-05-04 18:57:00,
2013-05-04 14:58:00,62.7,45.8,30.13,WSW,246,3.0,4.0,54,0.00,,,0.00,Wunderground v.1.15,2013-05-04 18:58:00,
2013-05-04 15:00:00,62.9,46.5,30.13,South,187,3.0,3.0,55,0.00,,,0.00,Wunderground v.1.15,2013-05-04 19:00:00,
2013-05-04 15:01:00,62.9,47.4,30.13,SE,128,3.0,3.0,57,0.00,,,0.00,Wunderground v.1.15,2013-05-04 19:01:00,
2013-05-04 15:02:00,62.9,47.0,30.12,North,360,3.0,3.0,56,0.00,,,0.00,Wunderground v.1.15,2013-05-04 19:02:00,
2013-05-04 15:05:00,63.4,46.9,30.12,North,10,2.0,3.0,55,0.00,,,0.00,Wunderground v.1.15,2013-05-04 19:05:00,
2013-05-04 15:06:00,63.4,47.4,30.12,NNE,16,2.0,3.0,56,0.00,,,0.00,Wunderground v.1.15,2013-05-04 19:06:00,
2013-05-04 15:07:00,63.5,47.5,30.12,South,174,2.0,3.0,56,0.00,,,0.00,Wunderground v.1.15,2013-05-04 19:07:00,
2013-05-04 15:13:00,64.2,48.2,30.12,SE,130,2.0,3.0,56,0.00,,,0.00,Wunderground v.1.15,2013-05-04 19:13:00,
2013-05-04 15:16:00,64.0,46.5,30.12,SE,139,3.0,3.0,53,0.00,,,0.00,Wunderground v.1.15,2013-05-04 19:16:00,
2013-05-04 15:20:00,63.7,46.7,30.12,WSW,258,3.0,5.0,54,0.00,,,0.00,Wunderground v.1.15,2013-05-04 19:20:00,
2013-05-04 15:21:00,63.5,46.6,30.12,SE,138,3.0,5.0,54,0.00,,,0.00,Wunderground v.1.15,2013-05-04 19:21:00,
2013-05-04 15:22:00,63.4,46.9,30.12,ESE,108,3.0,5.0,55,0.00,,,0.00,Wunderground v.1.15,2013-05-04 19:22:00,
2013-05-04 15:24:00,63.4,46.9,30.12,SE,132,3.0,5.0,55,0.00,,,0.00,Wunderground v.1.15,2013-05-04 19:24:00,
2013-05-04 15:25:00,63.4,47.4,30.12,South,175,2.0,5.0,56,0.00,,,0.00,Wunderground v.1.15,2013-05-04 19:25:00,
2013-05-04 15:27:00,63.2,47.2,30.12,SSW,198,3.0,5.0,56,0.00,,,0.00,Wunderground v.1.15,2013-05-04 19:27:00,
2013-05-04 15:29:00,63.2,46.8,30.12,ESE,120,2.0,5.0,55,0.00,,,0.00,Wunderground v.1.15,2013-05-04 19:29:00,
2013-05-04 15:30:00,63.2,47.7,30.12,SE,141,2.0,5.0,57,0.00,,,0.00,Wunderground v.1.15,2013-05-04 19:30:00,
2013-05-04 15:34:00,62.9,46.0,30.12,NW,313,2.0,5.0,54,0.00,,,0.00,Wunderground v.1.15,2013-05-04 19:34:00,
2013-05-04 15:35:00,62.7,46.3,30.12,SE,132,2.0,5.0,55,0.00,,,0.00,Wunderground v.1.15,2013-05-04 19:35:00,
2013-05-04 15:37:00,62.7,46.8,30.12,SE,132,2.0,5.0,56,0.00,,,0.00,Wunderground v.1.15,2013-05-04 19:37:00,
2013-05-04 15:39:00,62.7,46.8,30.12,SE,144,2.0,5.0,56,0.00,,,0.00,Wunderground v.1.15,2013-05-04 19:39:00,
2013-05-04 15:40:00,62.7,47.2,30.12,NNE,28,3.0,5.0,57,0.00,,,0.00,Wunderground v.1.15,2013-05-04 19:40:00,
2013-05-04 15:41:00,62.7,46.8,30.12,SW,235,3.0,5.0,56,0.00,,,0.00,Wunderground v.1.15,2013-05-04 19:41:00,
2013-05-04 15:43:00,62.9,46.0,30.12,SSE,168,2.0,5.0,54,0.00,,,0.00,Wunderground v.1.15,2013-05-04 19:43:00,
2013-05-04 15:45:00,63.1,47.1,30.12,SE,126,2.0,5.0,56,0.00,,,0.00,Wunderground v.1.15,2013-05-04 19:45:00,
2013-05-04 15:48:00,63.1,46.7,30.11,SE,144,2.0,5.0,55,0.00,,,0.00,Wunderground v.1.15,2013-05-04 19:48:00,
2013-05-04 15:49:00,63.1,46.7,30.11,NW,308,2.0,5.0,55,0.00,,,0.00,Wunderground v.1.15,2013-05-04 19:49:00,
2013-05-04 15:50:00,63.1,46.2,30.11,SE,132,2.0,2.0,54,0.00,,,0.00,Wunderground v.1.15,2013-05-04 19:50:00,
2013-05-04 15:51:00,63.1,46.2,30.11,SE,141,2.0,2.0,54,0.00,,,0.00,Wunderground v.1.15,2013-05-04 19:51:00,
2013-05-04 15:53:00,63.1,47.1,30.11,SSE,152,2.0,3.0,56,0.00,,,0.00,Wunderground v.1.15,2013-05-04 19:53:00,
2013-05-04 15:56:00,63.2,47.2,30.11,ESE,116,2.0,3.0,56,0.00,,,0.00,Wunderground v.1.15,2013-05-04 19:56:00,
2013-05-04 15:57:00,63.4,47.4,30.11,SSE,159,2.0,3.0,56,0.00,,,0.00,Wunderground v.1.15,2013-05-04 19:57:00,
2013-05-04 15:58:00,63.5,47.5,30.11,ESE,123,2.0,3.0,56,0.00,,,0.00,Wunderground v.1.15,2013-05-04 19:58:00,
2013-05-04 16:00:00,63.9,47.4,30.11,SSW,200,2.0,4.0,55,0.00,,,0.00,Wunderground v.1.15,2013-05-04 20:00:00,
2013-05-04 16:04:00,64.2,47.2,30.11,NW,318,2.0,5.0,54,0.00,,,0.00,Wunderground v.1.15,2013-05-04 20:04:00,
2013-05-04 16:05:00,64.2,46.7,30.11,SE,144,3.0,6.0,53,0.00,,,0.00,Wunderground v.1.15,2013-05-04 20:05:00,
2013-05-04 16:06:00,64.2,46.7,30.11,SE,131,3.0,6.0,53,0.00,,,0.00,Wunderground v.1.15,2013-05-04 20:06:00,
2013-05-04 16:07:00,64.2,47.7,30.11,SE,143,3.0,6.0,55,0.00,,,0.00,Wunderground v.1.15,2013-05-04 20:07:00,
2013-05-04 16:09:00,64.3,46.8,30.11,West,281,3.0,6.0,53,0.00,,,0.00,Wunderground v.1.15,2013-05-04 20:09:00,
2013-05-04 16:11:00,64.5,47.5,30.11,SSW,201,3.0,3.0,54,0.00,,,0.00,Wunderground v.1.15,2013-05-04 20:11:00,
2013-05-04 16:12:00,64.5,46.5,30.11,West,280,3.0,4.0,52,0.00,,,0.00,Wunderground v.1.15,2013-05-04 20:12:00,
2013-05-04 16:13:00,64.5,46.5,30.11,South,188,3.0,4.0,52,0.00,,,0.00,Wunderground v.1.15,2013-05-04 20:13:00,
2013-05-04 16:17:00,64.3,46.8,30.10,SW,234,2.0,4.0,53,0.00,,,0.00,Wunderground v.1.15,2013-05-04 20:17:00,
2013-05-04 16:18:00,64.5,47.0,30.10,NNE,30,2.0,4.0,53,0.00,,,0.00,Wunderground v.1.15,2013-05-04 20:18:00,
2013-05-04 16:19:00,64.5,46.5,30.10,ENE,65,2.0,4.0,52,0.00,,,0.00,Wunderground v.1.15,2013-05-04 20:19:00,
2013-05-04 16:22:00,64.7,46.1,30.10,SE,130,2.0,6.0,51,0.00,,,0.00,Wunderground v.1.15,2013-05-04 20:22:00,
2013-05-04 16:25:00,64.3,47.3,30.10,ESE,115,2.0,6.0,54,0.00,,,0.00,Wunderground v.1.15,2013-05-04 20:25:00,
2013-05-04 16:27:00,64.2,46.7,30.10,South,178,3.0,6.0,53,0.00,,,0.00,Wunderground v.1.15,2013-05-04 20:27:00,
2013-05-04 16:29:00,64.2,47.7,30.10,SSE,163,3.0,6.0,55,0.00,,,0.00,Wunderground v.1.15,2013-05-04 20:29:00,
2013-05-04 16:30:00,64.2,47.7,30.10,South,169,3.0,4.0,55,0.00,,,0.00,Wunderground v.1.15,2013-05-04 20:30:00,
2013-05-04 16:32:00,64.2,47.7,30.10,WSW,257,3.0,4.0,55,0.00,,,0.00,Wunderground v.1.15,2013-05-04 20:32:00,
2013-05-04 16:34:00,64.0,47.0,30.10,West,261,2.0,4.0,54,0.00,,,0.00,Wunderground v.1.15,2013-05-04 20:34:00,
2013-05-04 16:37:00,63.9,46.9,30.10,SW,225,2.0,4.0,54,0.00,,,0.00,Wunderground v.1.15,2013-05-04 20:37:00,
2013-05-04 16:38:00,63.9,46.9,30.10,WSW,255,2.0,6.0,54,0.00,,,0.00,Wunderground v.1.15,2013-05-04 20:38:00,
2013-05-04 16:39:00,63.9,46.9,30.10,SSW,211,2.0,6.0,54,0.00,,,0.00,Wunderground v.1.15,2013-05-04 20:39:00,
2013-05-04 16:42:00,63.9,47.9,30.10,NNW,338,2.0,2.0,56,0.00,,,0.00,Wunderground v.1.15,2013-05-04 20:42:00,
2013-05-04 16:44:00,64.0,47.0,30.10,South,188,2.0,4.0,54,0.00,,,0.00,Wunderground v.1.15,2013-05-04 20:44:00,
2013-05-04 16:46:00,64.2,47.2,30.10,SSE,156,2.0,4.0,54,0.00,,,0.00,Wunderground v.1.15,2013-05-04 20:46:00,
2013-05-04 16:47:00,64.2,47.2,30.10,South,173,2.0,5.0,54,0.00,,,0.00,Wunderground v.1.15,2013-05-04 20:47:00,
2013-05-04 16:49:00,63.9,46.9,30.10,WSW,240,3.0,6.0,54,0.00,,,0.00,Wunderground v.1.15,2013-05-04 20:49:00,
2013-05-04 16:50:00,63.9,46.9,30.10,SW,234,3.0,3.0,54,0.00,,,0.00,Wunderground v.1.15,2013-05-04 20:50:00,
2013-05-04 16:52:00,63.9,46.9,30.10,SSE,149,3.0,3.0,54,0.00,,,0.00,Wunderground v.1.15,2013-05-04 20:52:00,
2013-05-04 16:54:00,64.0,48.0,30.10,SE,143,3.0,3.0,56,0.00,,,0.00,Wunderground v.1.15,2013-05-04 20:54:00,
2013-05-04 16:55:00,64.0,48.0,30.10,SE,137,2.0,3.0,56,0.00,,,0.00,Wunderground v.1.15,2013-05-04 20:55:00,
2013-05-04 16:57:00,64.3,47.8,30.10,SSW,207,2.0,3.0,55,0.00,,,0.00,Wunderground v.1.15,2013-05-04 20:57:00,
2013-05-04 16:58:00,64.5,47.5,30.10,South,175,2.0,6.0,54,0.00,,,0.00,Wunderground v.1.15,2013-05-04 20:58:00,
2013-05-04 17:01:00,64.0,46.0,30.10,South,187,2.0,2.0,52,0.00,,,0.00,Wunderground v.1.15,2013-05-04 21:01:00,
2013-05-04 17:02:00,63.9,46.9,30.10,SSW,210,2.0,2.0,54,0.00,,,0.00,Wunderground v.1.15,2013-05-04 21:02:00,
2013-05-04 17:04:00,64.0,47.5,30.10,SW,234,2.0,2.0,55,0.00,,,0.00,Wunderground v.1.15,2013-05-04 21:04:00,
2013-05-04 17:06:00,64.2,47.2,30.10,ESE,121,2.0,2.0,54,0.00,,,0.00,Wunderground v.1.15,2013-05-04 21:06:00,
2013-05-04 17:08:00,64.3,47.3,30.10,NNW,335,2.0,2.0,54,0.00,,,0.00,Wunderground v.1.15,2013-05-04 21:08:00,
2013-05-04 17:11:00,64.3,46.3,30.10,NNE,32,2.0,2.0,52,0.00,,,0.00,Wunderground v.1.15,2013-05-04 21:11:00,
2013-05-04 17:12:00,64.3,46.8,30.10,North,355,2.0,3.0,53,0.00,,,0.00,Wunderground v.1.15,2013-05-04 21:12:00,
2013-05-04 17:14:00,64.2,47.7,30.10,SE,141,2.0,5.0,55,0.00,,,0.00,Wunderground v.1.15,2013-05-04 21:14:00,
2013-05-04 17:15:00,64.0,47.5,30.10,North,349,3.0,5.0,55,0.00,,,0.00,Wunderground v.1.15,2013-05-04 21:15:00,
2013-05-04 17:16:00,63.9,47.4,30.10,SE,136,3.0,10.0,55,0.00,,,0.00,Wunderground v.1.15,2013-05-04 21:16:00,
2013-05-04 17:22:00,63.2,46.8,30.10,SE,126,4.0,5.0,55,0.00,,,0.00,Wunderground v.1.15,2013-05-04 21:22:00,
2013-05-04 17:23:00,63.2,47.7,30.10,ESE,111,3.0,5.0,57,0.00,,,0.00,Wunderground v.1.15,2013-05-04 21:23:00,
2013-05-04 17:25:00,63.2,46.8,30.10,SSW,200,3.0,5.0,55,0.00,,,0.00,Wunderground v.1.15,2013-05-04 21:25:00,
2013-05-04 17:27:00,63.2,47.2,30.10,ENE,68,2.0,5.0,56,0.00,,,0.00,Wunderground v.1.15,2013-05-04 21:27:00,
2013-05-04 17:30:00,63.2,46.3,30.10,SSW,200,2.0,2.0,54,0.00,,,0.00,Wunderground v.1.15,2013-05-04 21:30:00,
2013-05-04 17:32:00,63.2,47.7,30.10,NNW,329,2.0,6.0,57,0.00,,,0.00,Wunderground v.1.15,2013-05-04 21:32:00,
2013-05-04 17:33:00,63.4,46.5,30.10,NNW,343,2.0,6.0,54,0.00,,,0.00,Wunderground v.1.15,2013-05-04 21:33:00,
2013-05-04 17:35:00,63.4,46.5,30.10,NNW,331,2.0,6.0,54,0.00,,,0.00,Wunderground v.1.15,2013-05-04 21:35:00,
2013-05-04 17:38:00,63.4,46.0,30.10,SSE,164,3.0,6.0,53,0.00,,,0.00,Wunderground v.1.15,2013-05-04 21:38:00,
2013-05-04 17:40:00,63.4,46.5,30.10,South,185,3.0,3.0,54,0.00,,,0.00,Wunderground v.1.15,2013-05-04 21:40:00,
2013-05-04 17:41:00,63.2,46.3,30.10,SSE,155,3.0,4.0,54,0.00,,,0.00,Wunderground v.1.15,2013-05-04 21:41:00,
2013-05-04 17:42:00,63.2,46.3,30.10,SE,135,3.0,4.0,54,0.00,,,0.00,Wunderground v.1.15,2013-05-04 21:42:00,
2013-05-04 17:45:00,62.9,46.0,30.10,South,190,3.0,4.0,54,0.00,,,0.00,Wunderground v.1.15,2013-05-04 21:45:00,
2013-05-04 17:47:00,62.7,46.3,30.10,ESE,121,2.0,4.0,55,0.00,,,0.00,Wunderground v.1.15,2013-05-04 21:47:00,
2013-05-04 17:51:00,62.7,46.3,30.10,SSE,155,2.0,2.0,55,0.00,,,0.00,Wunderground v.1.15,2013-05-04 21:51:00,
2013-05-04 17:52:00,62.7,46.3,30.10,SE,130,2.0,2.0,55,0.00,,,0.00,Wunderground v.1.15,2013-05-04 21:52:00,
2013-05-04 17:53:00,62.9,46.5,30.10,SSE,167,1.0,2.0,55,0.00,,,0.00,Wunderground v.1.15,2013-05-04 21:53:00,
2013-05-04 17:55:00,62.9,46.5,30.10,SE,140,1.0,2.0,55,0.00,,,0.00,Wunderground v.1.15,2013-05-04 21:55:00,
2013-05-04 17:59:00,63.5,47.0,30.10,South,191,2.0,6.0,55,0.00,,,0.00,Wunderground v.1.15,2013-05-04 21:59:00,
2013-05-04 18:00:00,63.5,47.5,30.10,South,184,2.0,4.0,56,0.00,,,0.00,Wunderground v.1.15,2013-05-04 22:00:00,
2013-05-04 18:02:00,63.5,47.0,30.10,South,182,2.0,4.0,55,0.00,,,0.00,Wunderground v.1.15,2013-05-04 22:02:00,
2013-05-04 18:04:00,63.5,46.6,30.10,South,182,2.0,4.0,54,0.00,,,0.00,Wunderground v.1.15,2013-05-04 22:04:00,
2013-05-04 18:05:00,63.4,46.5,30.10,South,181,2.0,4.0,54,0.00,,,0.00,Wunderground v.1.15,2013-05-04 22:05:00,
2013-05-04 18:07:00,63.1,46.7,30.10,ESE,105,2.0,4.0,55,0.00,,,0.00,Wunderground v.1.15,2013-05-04 22:07:00,
2013-05-04 18:10:00,62.7,46.3,30.10,South,171,2.0,2.0,55,0.00,,,0.00,Wunderground v.1.15,2013-05-04 22:10:00,
2013-05-04 18:13:00,62.3,45.9,30.10,SSE,165,2.0,4.0,55,0.00,,,0.00,Wunderground v.1.15,2013-05-04 22:13:00,
2013-05-04 18:15:00,62.1,46.7,30.10,WSW,252,2.0,4.0,57,0.00,,,0.00,Wunderground v.1.15,2013-05-04 22:15:00,
2013-05-04 18:16:00,62.1,46.7,30.10,WSW,251,2.0,4.0,57,0.00,,,0.00,Wunderground v.1.15,2013-05-04 22:16:00,
2013-05-04 18:17:00,62.1,46.2,30.09,WSW,252,2.0,4.0,56,0.00,,,0.00,Wunderground v.1.15,2013-05-04 22:17:00,
2013-05-04 18:18:00,62.1,45.7,30.09,SW,234,2.0,4.0,55,0.00,,,0.00,Wunderground v.1.15,2013-05-04 22:18:00,
2013-05-04 18:20:00,62.3,45.9,30.09,NNW,344,2.0,3.0,55,0.00,,,0.00,Wunderground v.1.15,2013-05-04 22:20:00,
2013-05-04 18:24:00,62.4,46.0,30.09,ESE,114,2.0,4.0,55,0.00,,,0.00,Wunderground v.1.15,2013-05-04 22:24:00,
2013-05-04 18:25:00,62.6,46.2,30.09,ESE,115,2.0,4.0,55,0.00,,,0.00,Wunderground v.1.15,2013-05-04 22:25:00,
2013-05-04 18:26:00,62.6,46.2,30.09,ESE,115,2.0,4.0,55,0.00,,,0.00,Wunderground v.1.15,2013-05-04 22:26:00,
2013-05-04 18:27:00,62.6,45.7,30.09,South,175,2.0,4.0,54,0.00,,,0.00,Wunderground v.1.15,2013-05-04 22:27:00,
2013-05-04 18:28:00,62.7,46.3,30.09,South,190,2.0,4.0,55,0.00,,,0.00,Wunderground v.1.15,2013-05-04 22:28:00,
2013-05-04 18:29:00,62.7,45.8,30.09,SSW,204,2.0,4.0,54,0.00,,,0.00,Wunderground v.1.15,2013-05-04 22:29:00,
2013-05-04 18:30:00,62.7,45.8,30.09,SSE,154,2.0,5.0,54,0.00,,,0.00,Wunderground v.1.15,2013-05-04 22:30:00,
2013-05-04 18:34:00,62.3,45.4,30.09,SSE,150,2.0,5.0,54,0.00,,,0.00,Wunderground v.1.15,2013-05-04 22:34:00,
2013-05-04 18:35:00,62.1,45.7,30.09,SE,136,2.0,5.0,55,0.00,,,0.00,Wunderground v.1.15,2013-05-04 22:35:00,
2013-05-04 18:36:00,62.1,45.7,30.09,SSE,155,2.0,5.0,55,0.00,,,0.00,Wunderground v.1.15,2013-05-04 22:36:00,
2013-05-04 18:39:00,61.8,45.5,30.09,SSE,156,2.0,5.0,55,0.00,,,0.00,Wunderground v.1.15,2013-05-04 22:39:00,
2013-05-04 18:40:00,61.8,45.9,30.09,SSE,156,2.0,3.0,56,0.00,,,0.00,Wunderground v.1.15,2013-05-04 22:40:00,
2013-05-04 18:41:00,61.8,46.4,30.09,SSE,156,2.0,3.0,57,0.00,,,0.00,Wunderground v.1.15,2013-05-04 22:41:00,
2013-05-04 18:42:00,61.8,46.4,30.09,SSE,156,2.0,3.0,57,0.00,,,0.00,Wunderground v.1.15,2013-05-04 22:42:00,
2013-05-04 18:45:00,61.8,46.9,30.09,West,271,2.0,3.0,58,0.00,,,0.00,Wunderground v.1.15,2013-05-04 22:45:00,
2013-05-04 18:46:00,61.8,46.9,30.09,West,277,2.0,3.0,58,0.00,,,0.00,Wunderground v.1.15,2013-05-04 22:46:00,
2013-05-04 18:47:00,62.0,46.6,30.10,West,277,2.0,3.0,57,0.00,,,0.00,Wunderground v.1.15,2013-05-04 22:47:00,
2013-05-04 18:50:00,62.3,45.9,30.10,NE,54,2.0,2.0,55,0.00,,,0.00,Wunderground v.1.15,2013-05-04 22:50:00,
2013-05-04 18:51:00,62.3,45.9,30.10,NE,53,2.0,2.0,55,0.00,,,0.00,Wunderground v.1.15,2013-05-04 22:51:00,
2013-05-04 18:52:00,62.3,46.4,30.10,SE,124,2.0,2.0,56,0.00,,,0.00,Wunderground v.1.15,2013-05-04 22:52:00,
2013-05-04 18:54:00,62.3,46.4,30.10,East,98,2.0,3.0,56,0.00,,,0.00,Wunderground v.1.15,2013-05-04 22:54:00,
2013-05-04 18:55:00,62.1,46.2,30.10,SE,131,2.0,3.0,56,0.00,,,0.00,Wunderground v.1.15,2013-05-04 22:55:00,
2013-05-04 18:56:00,62.1,46.2,30.10,ESE,110,2.0,3.0,56,0.00,,,0.00,Wunderground v.1.15,2013-05-04 22:56:00,
2013-05-04 18:57:00,62.1,45.7,30.10,ESE,112,2.0,3.0,55,0.00,,,0.00,Wunderground v.1.15,2013-05-04 22:57:00,
2013-05-04 19:00:00,62.0,46.1,30.10,SE,143,1.0,1.0,56,0.00,,,0.00,Wunderground v.1.15,2013-05-04 23:00:00,
2013-05-04 19:01:00,61.8,45.9,30.10,SE,143,1.0,1.0,56,0.00,,,0.00,Wunderground v.1.15,2013-05-04 23:01:00,
2013-05-04 19:02:00,61.8,46.4,30.10,SE,143,1.0,1.0,57,0.00,,,0.00,Wunderground v.1.15,2013-05-04 23:02:00,
2013-05-04 19:05:00,61.6,44.8,30.10,West,259,1.0,5.0,54,0.00,,,0.00,Wunderground v.1.15,2013-05-04 23:05:00,
2013-05-04 19:07:00,61.3,45.0,30.10,South,172,1.0,5.0,55,0.00,,,0.00,Wunderground v.1.15,2013-05-04 23:07:00,
2013-05-04 19:08:00,61.3,45.0,30.10,South,172,1.0,5.0,55,0.00,,,0.00,Wunderground v.1.15,2013-05-04 23:08:00,
2013-05-04 19:11:00,61.2,44.9,30.10,ENE,78,1.0,1.0,55,0.00,,,0.00,Wunderground v.1.15,2013-05-04 23:11:00,
2013-05-04 19:12:00,61.0,45.2,30.10,ENE,78,1.0,1.0,56,0.00,,,0.00,Wunderground v.1.15,2013-05-04 23:12:00,
2013-05-04 19:13:00,61.0,45.2,30.10,SSE,147,1.0,1.0,56,0.00,,,0.00,Wunderground v.1.15,2013-05-04 23:13:00,
2013-05-04 19:16:00,61.0,45.7,30.09,SE,134,1.0,1.0,57,0.00,,,0.00,Wunderground v.1.15,2013-05-04 23:16:00,
2013-05-04 19:18:00,60.9,45.1,30.09,SE,144,1.0,2.0,56,0.00,,,0.00,Wunderground v.1.15,2013-05-04 23:18:00,
2013-05-04 19:21:00,60.7,45.4,30.09,South,178,1.0,2.0,57,0.00,,,0.00,Wunderground v.1.15,2013-05-04 23:21:00,
2013-05-04 19:24:00,60.5,45.2,30.09,South,178,1.0,2.0,57,0.00,,,0.00,Wunderground v.1.15,2013-05-04 23:24:00,
2013-05-04 19:25:00,60.5,45.2,30.09,South,178,1.0,2.0,57,0.00,,,0.00,Wunderground v.1.15,2013-05-04 23:25:00,
2013-05-04 19:28:00,60.5,45.6,30.09,South,178,1.0,2.0,58,0.00,,,0.00,Wunderground v.1.15,2013-05-04 23:28:00,
2013-05-04 19:29:00,60.5,45.6,30.09,South,178,1.0,2.0,58,0.00,,,0.00,Wunderground v.1.15,2013-05-04 23:29:00,
2013-05-04 19:31:00,60.5,45.6,30.09,SSW,194,0.0,2.0,58,0.00,,,0.00,Wunderground v.1.15,2013-05-04 23:31:00,
2013-05-04 19:32:00,60.4,45.5,30.10,South,190,0.0,2.0,58,0.00,,,0.00,Wunderground v.1.15,2013-05-04 23:32:00,
2013-05-04 19:33:00,60.4,45.5,30.10,South,190,0.0,2.0,58,0.00,,,0.00,Wunderground v.1.15,2013-05-04 23:33:00,
2013-05-04 19:34:00,60.4,45.5,30.10,SSW,196,0.0,2.0,58,0.00,,,0.00,Wunderground v.1.15,2013-05-04 23:34:00,
2013-05-04 19:37:00,60.1,45.3,30.10,SSW,196,0.0,2.0,58,0.00,,,0.00,Wunderground v.1.15,2013-05-04 23:37:00,
2013-05-04 19:39:00,59.9,45.1,30.10,NW,311,1.0,2.0,58,0.00,,,0.00,Wunderground v.1.15,2013-05-04 23:39:00,
2013-05-04 19:41:00,59.8,45.4,30.10,NW,311,1.0,1.0,59,0.00,,,0.00,Wunderground v.1.15,2013-05-04 23:41:00,
2013-05-04 19:43:00,59.6,45.2,30.10,NW,311,1.0,1.0,59,0.00,,,0.00,Wunderground v.1.15,2013-05-04 23:43:00,
2013-05-04 19:46:00,59.5,45.2,30.10,NW,311,1.0,3.0,59,0.00,,,0.00,Wunderground v.1.15,2013-05-04 23:46:00,
2013-05-04 19:49:00,59.2,44.9,30.10,NNE,30,1.0,4.0,59,0.00,,,0.00,Wunderground v.1.15,2013-05-04 23:49:00,
2013-05-04 19:50:00,59.2,45.3,30.10,NNE,25,1.0,1.0,60,0.00,,,0.00,Wunderground v.1.15,2013-05-04 23:50:00,
2013-05-04 19:53:00,58.9,45.0,30.10,WSW,256,1.0,1.0,60,0.00,,,0.00,Wunderground v.1.15,2013-05-04 23:53:00,
2013-05-04 19:55:00,58.9,45.0,30.10,WNW,290,1.0,1.0,60,0.00,,,0.00,Wunderground v.1.15,2013-05-04 23:55:00,
2013-05-04 19:58:00,58.7,45.3,30.10,NNW,340,1.0,4.0,61,0.00,,,0.00,Wunderground v.1.15,2013-05-04 23:58:00,
2013-05-04 20:00:00,58.6,45.2,30.10,NNW,340,1.0,1.0,61,0.00,,,0.00,Wunderground v.1.15,2013-05-05 00:00:00,
2013-05-04 20:01:00,58.4,45.0,30.10,NNW,340,1.0,1.0,61,0.00,,,0.00,Wunderground v.1.15,2013-05-05 00:01:00,
2013-05-04 20:02:00,58.4,45.0,30.11,NNW,340,1.0,1.0,61,0.00,,,0.00,Wunderground v.1.15,2013-05-05 00:02:00,
2013-05-04 20:03:00,58.4,45.0,30.11,NNW,341,1.0,1.0,61,0.00,,,0.00,Wunderground v.1.15,2013-05-05 00:03:00,
2013-05-04 20:06:00,58.3,44.9,30.11,North,350,1.0,4.0,61,0.00,,,0.00,Wunderground v.1.15,2013-05-05 00:06:00,
2013-05-04 20:08:00,58.1,44.7,30.11,North,350,1.0,4.0,61,0.00,,,0.00,Wunderground v.1.15,2013-05-05 00:08:00,
2013-05-04 20:13:00,57.8,44.4,30.11,NNW,344,1.0,2.0,61,0.00,,,0.00,Wunderground v.1.15,2013-05-05 00:13:00,
2013-05-04 20:14:00,57.8,44.4,30.11,NNW,344,1.0,2.0,61,0.00,,,0.00,Wunderground v.1.15,2013-05-05 00:14:00,
2013-05-04 20:15:00,57.6,44.7,30.11,NNW,344,1.0,2.0,62,0.00,,,0.00,Wunderground v.1.15,2013-05-05 00:15:00,
2013-05-04 20:17:00,57.5,44.6,30.11,NNW,337,0.0,2.0,62,0.00,,,0.00,Wunderground v.1.15,2013-05-05 00:17:00,
2013-05-04 20:18:00,57.5,44.6,30.11,North,355,0.0,2.0,62,0.00,,,0.00,Wunderground v.1.15,2013-05-05 00:18:00,
2013-05-04 20:20:00,57.5,44.1,30.11,North,355,1.0,1.0,61,0.00,,,0.00,Wunderground v.1.15,2013-05-05 00:20:00,
2013-05-04 20:23:00,57.3,44.4,30.11,North,355,0.0,1.0,62,0.00,,,0.00,Wunderground v.1.15,2013-05-05 00:23:00,
2013-05-04 20:26:00,57.2,44.3,30.11,North,355,0.0,1.0,62,0.00,,,0.00,Wunderground v.1.15,2013-05-05 00:26:00,
2013-05-04 20:28:00,57.0,44.5,30.11,North,355,0.0,1.0,63,0.00,,,0.00,Wunderground v.1.15,2013-05-05 00:28:00,
2013-05-04 20:30:00,57.0,44.5,30.11,North,355,0.0,0.0,63,0.00,,,0.00,Wunderground v.1.15,2013-05-05 00:30:00,
2013-05-04 20:31:00,57.0,44.5,30.11,North,355,0.0,0.0,63,0.00,,,0.00,Wunderground v.1.15,2013-05-05 00:31:00,
2013-05-04 20:32:00,56.9,44.4,30.12,North,355,0.0,0.0,63,0.00,,,0.00,Wunderground v.1.15,2013-05-05 00:32:00,
2013-05-04 20:35:00,56.7,44.7,30.12,North,355,0.0,0.0,64,0.00,,,0.00,Wunderground v.1.15,2013-05-05 00:35:00,
2013-05-04 20:36:00,56.7,44.7,30.12,North,355,0.0,0.0,64,0.00,,,0.00,Wunderground v.1.15,2013-05-05 00:36:00,
2013-05-04 20:38:00,56.6,44.6,30.12,North,355,0.0,0.0,64,0.00,,,0.00,Wunderground v.1.15,2013-05-05 00:38:00,
2013-05-04 20:41:00,56.5,44.5,30.12,North,355,0.0,0.0,64,0.00,,,0.00,Wunderground v.1.15,2013-05-05 00:41:00,
2013-05-04 20:43:00,56.3,44.3,30.12,North,355,0.0,0.0,64,0.00,,,0.00,Wunderground v.1.15,2013-05-05 00:43:00,
2013-05-04 20:44:00,56.3,44.3,30.12,North,355,0.0,0.0,64,0.00,,,0.00,Wunderground v.1.15,2013-05-05 00:44:00,
2013-05-04 20:46:00,56.2,44.2,30.12,North,355,0.0,0.0,64,0.00,,,0.00,Wunderground v.1.15,2013-05-05 00:46:00,
2013-05-04 20:47:00,56.0,44.0,30.12,North,355,0.0,0.0,64,0.00,,,0.00,Wunderground v.1.15,2013-05-05 00:47:00,
2013-05-04 20:51:00,55.9,43.9,30.12,North,355,0.0,0.0,64,0.00,,,0.00,Wunderground v.1.15,2013-05-05 00:51:00,
2013-05-04 20:52:00,55.9,43.9,30.12,North,355,0.0,0.0,64,0.00,,,0.00,Wunderground v.1.15,2013-05-05 00:52:00,
2013-05-04 20:53:00,55.9,43.9,30.12,North,355,0.0,0.0,64,0.00,,,0.00,Wunderground v.1.15,2013-05-05 00:53:00,
2013-05-04 20:56:00,55.7,44.1,30.12,North,355,0.0,0.0,65,0.00,,,0.00,Wunderground v.1.15,2013-05-05 00:56:00,
2013-05-04 20:57:00,55.6,44.0,30.12,North,355,0.0,0.0,65,0.00,,,0.00,Wunderground v.1.15,2013-05-05 00:57:00,
2013-05-04 20:58:00,55.6,44.0,30.12,North,355,0.0,0.0,65,0.00,,,0.00,Wunderground v.1.15,2013-05-05 00:58:00,
2013-05-04 20:59:00,55.6,44.0,30.12,North,355,0.0,0.0,65,0.00,,,0.00,Wunderground v.1.15,2013-05-05 00:59:00,
2013-05-04 21:04:00,55.1,43.5,30.13,North,355,0.0,0.0,65,0.00,,,0.00,Wunderground v.1.15,2013-05-05 01:04:00,
2013-05-04 21:06:00,55.0,43.8,30.13,North,355,0.0,0.0,66,0.00,,,0.00,Wunderground v.1.15,2013-05-05 01:06:00,
2013-05-04 21:08:00,55.0,43.8,30.13,North,355,0.0,0.0,66,0.00,,,0.00,Wunderground v.1.15,2013-05-05 01:08:00,
2013-05-04 21:09:00,54.8,43.7,30.13,North,355,0.0,0.0,66,0.00,,,0.00,Wunderground v.1.15,2013-05-05 01:09:00,
2013-05-04 21:11:00,54.7,44.0,30.13,North,355,0.0,0.0,67,0.00,,,0.00,Wunderground v.1.15,2013-05-05 01:11:00,
2013-05-04 21:14:00,54.5,43.8,30.13,North,355,0.0,0.0,67,0.00,,,0.00,Wunderground v.1.15,2013-05-05 01:14:00,
2013-05-04 21:16:00,54.4,43.7,30.13,North,355,0.0,0.0,67,0.00,,,0.00,Wunderground v.1.15,2013-05-05 01:16:00,
2013-05-04 21:17:00,54.4,43.7,30.13,North,355,0.0,0.0,67,0.00,,,0.00,Wunderground v.1.15,2013-05-05 01:17:00,
2013-05-04 21:20:00,54.2,43.9,30.13,North,355,0.0,0.0,68,0.00,,,0.00,Wunderground v.1.15,2013-05-05 01:20:00,
2013-05-04 21:21:00,54.2,43.9,30.13,North,355,0.0,0.0,68,0.00,,,0.00,Wunderground v.1.15,2013-05-05 01:21:00,
2013-05-04 21:24:00,54.2,43.9,30.13,North,355,0.0,0.0,68,0.00,,,0.00,Wunderground v.1.15,2013-05-05 01:24:00,
2013-05-04 21:25:00,54.2,43.9,30.13,North,355,0.0,0.0,68,0.00,,,0.00,Wunderground v.1.15,2013-05-05 01:25:00,
2013-05-04 21:26:00,54.2,43.9,30.13,North,355,0.0,0.0,68,0.00,,,0.00,Wunderground v.1.15,2013-05-05 01:26:00,
2013-05-04 21:31:00,54.1,44.2,30.13,North,355,0.0,0.0,69,0.00,,,0.00,Wunderground v.1.15,2013-05-05 01:31:00,
2013-05-04 21:32:00,54.1,44.2,30.13,North,355,0.0,0.0,69,0.00,,,0.00,Wunderground v.1.15,2013-05-05 01:32:00,
2013-05-04 21:33:00,54.1,44.2,30.13,North,355,0.0,0.0,69,0.00,,,0.00,Wunderground v.1.15,2013-05-05 01:33:00,
2013-05-04 21:38:00,53.8,44.2,30.13,North,355,0.0,0.0,70,0.00,,,0.00,Wunderground v.1.15,2013-05-05 01:38:00,
2013-05-04 21:40:00,53.6,44.0,30.13,North,355,0.0,0.0,70,0.00,,,0.00,Wunderground v.1.15,2013-05-05 01:40:00,
2013-05-04 21:41:00,53.6,44.0,30.13,North,355,0.0,0.0,70,0.00,,,0.00,Wunderground v.1.15,2013-05-05 01:41:00,
2013-05-04 21:45:00,53.5,44.0,30.13,North,355,0.0,0.0,70,0.00,,,0.00,Wunderground v.1.15,2013-05-05 01:45:00,
2013-05-04 21:47:00,53.3,44.1,30.14,North,355,0.0,0.0,71,0.00,,,0.00,Wunderground v.1.15,2013-05-05 01:47:00,
2013-05-04 21:49:00,53.3,44.1,30.14,North,355,0.0,0.0,71,0.00,,,0.00,Wunderground v.1.15,2013-05-05 01:49:00,
2013-05-04 21:52:00,53.2,44.4,30.14,North,355,0.0,0.0,72,0.00,,,0.00,Wunderground v.1.15,2013-05-05 01:52:00,
2013-05-04 21:54:00,53.1,44.3,30.14,North,355,0.0,0.0,72,0.00,,,0.00,Wunderground v.1.15,2013-05-05 01:54:00,
2013-05-04 21:58:00,53.1,44.7,30.14,North,355,0.0,0.0,73,0.00,,,0.00,Wunderground v.1.15,2013-05-05 01:58:00,
2013-05-04 22:00:00,52.9,44.8,30.14,North,355,0.0,0.0,74,0.00,,,0.00,Wunderground v.1.15,2013-05-05 02:00:00,
2013-05-04 22:01:00,52.9,44.8,30.14,North,355,0.0,0.0,74,0.00,,,0.00,Wunderground v.1.15,2013-05-05 02:01:00,
2013-05-04 22:02:00,52.9,44.8,30.14,North,355,0.0,0.0,74,0.00,,,0.00,Wunderground v.1.15,2013-05-05 02:02:00,
2013-05-04 22:04:00,52.8,45.1,30.14,North,355,0.0,0.0,75,0.00,,,0.00,Wunderground v.1.15,2013-05-05 02:04:00,
2013-05-04 22:06:00,52.8,45.1,30.14,North,355,0.0,0.0,75,0.00,,,0.00,Wunderground v.1.15,2013-05-05 02:06:00,
2013-05-04 22:09:00,52.6,44.9,30.14,North,355,0.0,0.0,75,0.00,,,0.00,Wunderground v.1.15,2013-05-05 02:09:00,
2013-05-04 22:10:00,52.6,44.9,30.14,North,355,0.0,0.0,75,0.00,,,0.00,Wunderground v.1.15,2013-05-05 02:10:00,
2013-05-04 22:11:00,52.6,44.9,30.14,North,355,0.0,0.0,75,0.00,,,0.00,Wunderground v.1.15,2013-05-05 02:11:00,
2013-05-04 22:13:00,52.5,44.8,30.14,North,355,0.0,0.0,75,0.00,,,0.00,Wunderground v.1.15,2013-05-05 02:13:00,
2013-05-04 22:15:00,52.3,44.6,30.14,North,355,0.0,0.0,75,0.00,,,0.00,Wunderground v.1.15,2013-05-05 02:15:00,
2013-05-04 22:16:00,52.3,44.6,30.14,North,355,0.0,0.0,75,0.00,,,0.00,Wunderground v.1.15,2013-05-05 02:16:00,
2013-05-04 22:19:00,52.2,44.9,30.14,North,355,0.0,0.0,76,0.00,,,0.00,Wunderground v.1.15,2013-05-05 02:19:00,
2013-05-04 22:20:00,52.0,44.7,30.14,North,355,0.0,0.0,76,0.00,,,0.00,Wunderground v.1.15,2013-05-05 02:20:00,
2013-05-04 22:21:00,52.0,44.7,30.14,North,355,0.0,0.0,76,0.00,,,0.00,Wunderground v.1.15,2013-05-05 02:21:00,
2013-05-04 22:22:00,52.0,44.7,30.14,North,355,0.0,0.0,76,0.00,,,0.00,Wunderground v.1.15,2013-05-05 02:22:00,
2013-05-04 22:23:00,51.9,44.6,30.14,North,355,0.0,0.0,76,0.00,,,0.00,Wunderground v.1.15,2013-05-05 02:23:00,
2013-05-04 22:27:00,51.7,44.7,30.14,North,355,0.0,0.0,77,0.00,,,0.00,Wunderground v.1.15,2013-05-05 02:27:00,
2013-05-04 22:30:00,51.6,45.0,30.14,North,355,0.0,0.0,78,0.00,,,0.00,Wunderground v.1.15,2013-05-05 02:30:00,
2013-05-04 22:31:00,51.6,45.0,30.14,North,355,0.0,0.0,78,0.00,,,0.00,Wunderground v.1.15,2013-05-05 02:31:00,
2013-05-04 22:34:00,51.4,44.8,30.15,North,355,0.0,0.0,78,0.00,,,0.00,Wunderground v.1.15,2013-05-05 02:34:00,
2013-05-04 22:36:00,51.4,44.8,30.15,North,355,0.0,0.0,78,0.00,,,0.00,Wunderground v.1.15,2013-05-05 02:36:00,
2013-05-04 22:37:00,51.3,44.7,30.15,North,355,0.0,0.0,78,0.00,,,0.00,Wunderground v.1.15,2013-05-05 02:37:00,
2013-05-04 22:38:00,51.3,44.7,30.15,North,355,0.0,0.0,78,0.00,,,0.00,Wunderground v.1.15,2013-05-05 02:38:00,
2013-05-04 22:39:00,51.3,44.7,30.15,North,355,0.0,0.0,78,0.00,,,0.00,Wunderground v.1.15,2013-05-05 02:39:00,
2013-05-04 22:41:00,51.1,44.8,30.15,North,355,0.0,0.0,79,0.00,,,0.00,Wunderground v.1.15,2013-05-05 02:41:00,
2013-05-04 22:42:00,51.1,44.8,30.15,North,355,0.0,0.0,79,0.00,,,0.00,Wunderground v.1.15,2013-05-05 02:42:00,
2013-05-04 22:43:00,51.0,44.7,30.15,North,355,0.0,0.0,79,0.00,,,0.00,Wunderground v.1.15,2013-05-05 02:43:00,
2013-05-04 22:47:00,50.8,44.5,30.15,North,355,0.0,0.0,79,0.00,,,0.00,Wunderground v.1.15,2013-05-05 02:47:00,
2013-05-04 22:48:00,50.8,44.5,30.15,North,355,0.0,0.0,79,0.00,,,0.00,Wunderground v.1.15,2013-05-05 02:48:00,
2013-05-04 22:50:00,50.7,44.4,30.15,North,355,0.0,0.0,79,0.00,,,0.00,Wunderground v.1.15,2013-05-05 02:50:00,
2013-05-04 22:54:00,50.5,44.6,30.15,North,355,0.0,0.0,80,0.00,,,0.00,Wunderground v.1.15,2013-05-05 02:54:00,
2013-05-04 22:55:00,50.4,44.5,30.15,North,355,0.0,0.0,80,0.00,,,0.00,Wunderground v.1.15,2013-05-05 02:55:00,
2013-05-04 22:56:00,50.4,44.5,30.15,North,355,0.0,0.0,80,0.00,,,0.00,Wunderground v.1.15,2013-05-05 02:56:00,
2013-05-04 22:57:00,50.4,44.5,30.15,North,355,0.0,0.0,80,0.00,,,0.00,Wunderground v.1.15,2013-05-05 02:57:00,
2013-05-04 23:01:00,50.1,44.2,30.15,North,355,0.0,0.0,80,0.00,,,0.00,Wunderground v.1.15,2013-05-05 03:01:00,
2013-05-04 23:02:00,50.1,44.2,30.15,North,355,0.0,0.0,80,0.00,,,0.00,Wunderground v.1.15,2013-05-05 03:02:00,
2013-05-04 23:04:00,49.9,44.3,30.15,North,355,0.0,0.0,81,0.00,,,0.00,Wunderground v.1.15,2013-05-05 03:04:00,
2013-05-04 23:08:00,49.8,44.2,30.15,North,355,0.0,0.0,81,0.00,,,0.00,Wunderground v.1.15,2013-05-05 03:08:00,
2013-05-04 23:10:00,49.6,44.0,30.15,North,355,0.0,0.0,81,0.00,,,0.00,Wunderground v.1.15,2013-05-05 03:10:00,
2013-05-04 23:13:00,49.5,43.9,30.15,North,355,0.0,0.0,81,0.00,,,0.00,Wunderground v.1.15,2013-05-05 03:13:00,
2013-05-04 23:14:00,49.5,44.2,30.15,North,355,0.0,0.0,82,0.00,,,0.00,Wunderground v.1.15,2013-05-05 03:14:00,
2013-05-04 23:15:00,49.4,44.1,30.15,North,355,0.0,0.0,82,0.00,,,0.00,Wunderground v.1.15,2013-05-05 03:15:00,
2013-05-04 23:16:00,49.4,44.1,30.15,North,355,0.0,0.0,82,0.00,,,0.00,Wunderground v.1.15,2013-05-05 03:16:00,
2013-05-04 23:20:00,49.2,43.9,30.14,North,355,0.0,0.0,82,0.00,,,0.00,Wunderground v.1.15,2013-05-05 03:20:00,
2013-05-04 23:21:00,49.2,43.9,30.14,North,355,0.0,0.0,82,0.00,,,0.00,Wunderground v.1.15,2013-05-05 03:21:00,
2013-05-04 23:22:00,49.1,43.8,30.14,North,355,0.0,0.0,82,0.00,,,0.00,Wunderground v.1.15,2013-05-05 03:22:00,
2013-05-04 23:25:00,48.9,44.0,30.14,North,355,0.0,0.0,83,0.00,,,0.00,Wunderground v.1.15,2013-05-05 03:25:00,
2013-05-04 23:26:00,48.9,44.0,30.14,North,355,0.0,0.0,83,0.00,,,0.00,Wunderground v.1.15,2013-05-05 03:26:00,
2013-05-04 23:28:00,48.8,43.9,30.14,North,355,0.0,0.0,83,0.00,,,0.00,Wunderground v.1.15,2013-05-05 03:28:00,
2013-05-04 23:30:00,48.8,43.9,30.14,North,355,0.0,0.0,83,0.00,,,0.00,Wunderground v.1.15,2013-05-05 03:30:00,
2013-05-04 23:33:00,48.6,44.0,30.14,North,355,0.0,0.0,84,0.00,,,0.00,Wunderground v.1.15,2013-05-05 03:33:00,
2013-05-04 23:34:00,48.6,44.0,30.14,North,355,0.0,0.0,84,0.00,,,0.00,Wunderground v.1.15,2013-05-05 03:34:00,
2013-05-04 23:35:00,48.6,44.0,30.14,North,355,0.0,0.0,84,0.00,,,0.00,Wunderground v.1.15,2013-05-05 03:35:00,
2013-05-04 23:38:00,48.5,43.9,30.14,North,355,0.0,0.0,84,0.00,,,0.00,Wunderground v.1.15,2013-05-05 03:38:00,
2013-05-04 23:39:00,48.5,43.9,30.14,North,355,0.0,0.0,84,0.00,,,0.00,Wunderground v.1.15,2013-05-05 03:39:00,
2013-05-04 23:40:00,48.5,43.9,30.14,North,355,0.0,0.0,84,0.00,,,0.00,Wunderground v.1.15,2013-05-05 03:40:00,
2013-05-04 23:41:00,48.3,43.7,30.14,North,355,0.0,0.0,84,0.00,,,0.00,Wunderground v.1.15,2013-05-05 03:41:00,
2013-05-04 23:43:00,48.3,43.7,30.14,North,355,0.0,0.0,84,0.00,,,0.00,Wunderground v.1.15,2013-05-05 03:43:00,
2013-05-04 23:44:00,48.2,43.6,30.14,North,355,0.0,0.0,84,0.00,,,0.00,Wunderground v.1.15,2013-05-05 03:44:00,
2013-05-04 23:45:00,48.3,44.0,30.14,North,355,0.0,0.0,85,0.00,,,0.00,Wunderground v.1.15,2013-05-05 03:45:00,
2013-05-04 23:46:00,48.2,43.9,30.14,North,355,0.0,0.0,85,0.00,,,0.00,Wunderground v.1.15,2013-05-05 03:46:00,
2013-05-04 23:48:00,48.2,43.9,30.14,North,355,0.0,0.0,85,0.00,,,0.00,Wunderground v.1.15,2013-05-05 03:48:00,
2013-05-04 23:52:00,48.2,43.9,30.14,North,355,0.0,0.0,85,0.00,,,0.00,Wunderground v.1.15,2013-05-05 03:52:00,
2013-05-04 23:53:00,48.0,43.7,30.14,North,355,0.0,0.0,85,0.00,,,0.00,Wunderground v.1.15,2013-05-05 03:53:00,
2013-05-04 23:56:00,47.9,43.6,30.14,North,355,0.0,0.0,85,0.00,,,0.00,Wunderground v.1.15,2013-05-05 03:56:00,
2013-05-04 23:58:00,47.7,43.4,30.14,North,355,0.0,0.0,85,0.00,,,0.00,Wunderground v.1.15,2013-05-05 03:58:00,